Observation data for Caprock Canyons on 06/25/2019      Previous  Date  Next       Current Mesonet Observations  Soil Data  Daily Summary Page  Observations in Plain Language
KQU1 250500Z 13007KT 23/17 A2997 RMK A01 T02250168  RH  070%=      5-min Rain = 0
KQU1 250501Z 13007KT 23/17 A2997 RMK A01 T02250168  RH  070%=      5-min Rain = 0
KQU1 250502Z 13008KT 23/17 A2997 RMK A01 T02250168  RH  070%=      5-min Rain = 0
KQU1 250503Z 13008KT 23/17 A2997 RMK A01 T02250169  RH  070%=      5-min Rain = 0
KQU1 250504Z 13006KT 23/17 A2997 RMK A01 T02250169  RH  071%=      5-min Rain = 0
KQU1 250505Z 13009KT 23/17 A2997 RMK A01 T02250169  RH  071%=      5-min Rain = 0
KQU1 250506Z 14008KT 22/17 A2997 RMK A01 T02240170  RH  071%=      5-min Rain = 0
KQU1 250507Z 13010KT 22/17 A2997 RMK A01 T02240170  RH  071%=      5-min Rain = 0
KQU1 250508Z 14008KT 23/17 A2997 RMK A01 T02250171  RH  071%=      5-min Rain = 0
KQU1 250509Z 14008KT 22/17 A2997 RMK A01 T02240170  RH  072%=      5-min Rain = 0
KQU1 250510Z 14008KT 22/17 A2996 RMK A01 T02240171  RH  072%=      5-min Rain = 0
KQU1 250511Z 14008KT 22/17 A2996 RMK A01 T02230171  RH  072%=      5-min Rain = 0
KQU1 250512Z 14008KT 22/17 A2996 RMK A01 T02230172  RH  073%=      5-min Rain = 0
KQU1 250513Z 14009KT 22/17 A2996 RMK A01 T02230172  RH  073%=      5-min Rain = 0
KQU1 250514Z 14008KT 22/17 A2997 RMK A01 T02230173  RH  073%=      5-min Rain = 0
KQU1 250515Z 14008KT 22/17 A2997 RMK A01 T02230173  RH  073%=      5-min Rain = 0
KQU1 250516Z 14008KT 22/17 A2997 RMK A01 T02230174  RH  074%=      5-min Rain = 0
KQU1 250517Z 14009KT 22/17 A2997 RMK A01 T02230174  RH  074%=      5-min Rain = 0
KQU1 250518Z 15008KT 22/18 A2997 RMK A01 T02230175  RH  074%=      5-min Rain = 0
KQU1 250519Z 14009KT 22/18 A2997 RMK A01 T02230176  RH  075%=      5-min Rain = 0
KQU1 250520Z 14009KT 22/18 A2997 RMK A01 T02240177  RH  075%=      5-min Rain = 0
KQU1 250521Z 14007KT 22/18 A2997 RMK A01 T02240177  RH  075%=      5-min Rain = 0
KQU1 250522Z 14008KT 23/18 A2997 RMK A01 T02250178  RH  075%=      5-min Rain = 0
KQU1 250523Z 14010KT 23/18 A2997 RMK A01 T02250179  RH  075%=      5-min Rain = 0
KQU1 250524Z 14011KT 23/18 A2997 RMK A01 T02260179  RH  075%=      5-min Rain = 0
KQU1 250525Z 14010KT 23/18 A2997 RMK A01 T02270180  RH  075%=      5-min Rain = 0
KQU1 250526Z 14011KT 23/18 A2997 RMK A01 T02270181  RH  075%=      5-min Rain = 0
KQU1 250527Z 14011KT 23/18 A2997 RMK A01 T02270181  RH  075%=      5-min Rain = 0
KQU1 250528Z 14012KT 23/18 A2997 RMK A01 T02280182  RH  075%=      5-min Rain = 0
KQU1 250529Z 14012KT 23/18 A2997 RMK A01 T02280182  RH  075%=      5-min Rain = 0
KQU1 250530Z 14011G16KT 23/18 A2997 RMK A01 T02280182  RH  075%=      5-min Rain = 0
KQU1 250531Z 14014KT 23/18 A2997 RMK A01 T02280183  RH  075%=      5-min Rain = 0
KQU1 250532Z 13012KT 23/18 A2997 RMK A01 T02280183  RH  076%=      5-min Rain = 0
KQU1 250533Z 14010KT 23/18 A2997 RMK A01 T02280183  RH  076%=      5-min Rain = 0
KQU1 250534Z 14011KT 23/18 A2997 RMK A01 T02280183  RH  076%=      5-min Rain = 0
KQU1 250535Z 14011KT 23/18 A2997 RMK A01 T02280183  RH  076%=      5-min Rain = 0
KQU1 250536Z 14012KT 23/18 A2997 RMK A01 T02280183  RH  076%=      5-min Rain = 0
KQU1 250537Z 15011KT 23/18 A2997 RMK A01 T02280183  RH  076%=      5-min Rain = 0
KQU1 250538Z 14012KT 23/18 A2997 RMK A01 T02280184  RH  076%=      5-min Rain = 0
KQU1 250539Z 14010KT 23/18 A2996 RMK A01 T02280184  RH  076%=      5-min Rain = 0
KQU1 250540Z 13010KT 23/18 A2996 RMK A01 T02270184  RH  077%=      5-min Rain = 0
KQU1 250541Z 14009KT 23/18 A2996 RMK A01 T02270184  RH  077%=      5-min Rain = 0
KQU1 250542Z 14012KT 23/19 A2996 RMK A01 T02270185  RH  077%=      5-min Rain = 0
KQU1 250543Z 14013KT 23/19 A2997 RMK A01 T02260185  RH  078%=      5-min Rain = 0
KQU1 250544Z 14011KT 23/19 A2997 RMK A01 T02260186  RH  078%=      5-min Rain = 0
KQU1 250545Z 14011KT 23/19 A2996 RMK A01 T02260186  RH  078%=      5-min Rain = 0
KQU1 250546Z 14010KT 23/19 A2996 RMK A01 T02260186  RH  078%=      5-min Rain = 0
KQU1 250547Z 13011KT 23/19 A2996 RMK A01 T02260187  RH  079%=      5-min Rain = 0
KQU1 250548Z 13010KT 23/19 A2996 RMK A01 T02260187  RH  079%=      5-min Rain = 0
KQU1 250549Z 14012KT 23/19 A2996 RMK A01 T02260188  RH  079%=      5-min Rain = 0
KQU1 250550Z 14014KT 23/19 A2996 RMK A01 T02260188  RH  079%=      5-min Rain = 0
KQU1 250551Z 14012KT 23/19 A2996 RMK A01 T02260188  RH  079%=      5-min Rain = 0
KQU1 250552Z 14010KT 23/19 A2996 RMK A01 T02250188  RH  079%=      5-min Rain = 0
KQU1 250553Z 14009KT 23/19 A2996 RMK A01 T02250188  RH  080%=      5-min Rain = 0
KQU1 250554Z 13010KT 23/19 A2996 RMK A01 T02250189  RH  080%=      5-min Rain = 0
KQU1 250555Z 14011KT 23/19 A2996 RMK A01 T02250189  RH  080%=      5-min Rain = 0
KQU1 250556Z 13008KT 23/19 A2996 RMK A01 T02250189  RH  080%=      5-min Rain = 0
KQU1 250557Z 14010KT 23/19 A2995 RMK A01 T02250189  RH  080%=      5-min Rain = 0
KQU1 250558Z 14010KT 22/19 A2995 RMK A01 T02240189  RH  080%=      5-min Rain = 0
KQU1 250559Z 14010KT 22/19 A2995 RMK A01 T02240190  RH  081%=      5-min Rain = 0
KQU1 250600Z 14013KT 22/19 A2995 RMK A01 T02240191  RH  081%=      5-min Rain = 0
KQU1 250601Z 14010KT 22/19 A2995 RMK A01 T02240191  RH  081%=      5-min Rain = 0
KQU1 250602Z 14010KT 23/19 A2995 RMK A01 T02250191  RH  081%=      5-min Rain = 0
KQU1 250603Z 15009KT 23/19 A2995 RMK A01 T02250191  RH  081%=      5-min Rain = 0
KQU1 250604Z 15010KT 23/19 A2995 RMK A01 T02250191  RH  081%=      5-min Rain = 0
KQU1 250605Z 15009KT 23/19 A2995 RMK A01 T02250192  RH  081%=      5-min Rain = 0
KQU1 250606Z 15009KT 23/19 A2995 RMK A01 T02250192  RH  082%=      5-min Rain = 0
KQU1 250607Z 14010KT 23/19 A2995 RMK A01 T02250192  RH  082%=      5-min Rain = 0
KQU1 250608Z 14009KT 23/19 A2995 RMK A01 T02250192  RH  082%=      5-min Rain = 0
KQU1 250609Z 14008KT 23/19 A2995 RMK A01 T02250192  RH  082%=      5-min Rain = 0
KQU1 250610Z 15010KT 23/19 A2995 RMK A01 T02250193  RH  082%=      5-min Rain = 0
KQU1 250611Z 14011KT 23/19 A2995 RMK A01 T02250193  RH  082%=      5-min Rain = 0
KQU1 250612Z 14010KT 23/19 A2995 RMK A01 T02260193  RH  082%=      5-min Rain = 0
KQU1 250613Z 14009KT 23/19 A2995 RMK A01 T02260193  RH  082%=      5-min Rain = 0
KQU1 250614Z 14011KT 23/19 A2995 RMK A01 T02260194  RH  082%=      5-min Rain = 0
KQU1 250615Z 14010KT 23/19 A2995 RMK A01 T02260194  RH  082%=      5-min Rain = 0
KQU1 250616Z 14010KT 23/19 A2995 RMK A01 T02260194  RH  082%=      5-min Rain = 0
KQU1 250617Z 14009KT 23/19 A2995 RMK A01 T02260194  RH  082%=      5-min Rain = 0
KQU1 250618Z 14009KT 23/19 A2995 RMK A01 T02270194  RH  082%=      5-min Rain = 0
KQU1 250619Z 14009KT 23/19 A2995 RMK A01 T02260194  RH  082%=      5-min Rain = 0
KQU1 250620Z 15009KT 23/19 A2995 RMK A01 T02260194  RH  082%=      5-min Rain = 0
KQU1 250621Z 15009KT 23/19 A2995 RMK A01 T02260194  RH  082%=      5-min Rain = 0
KQU1 250622Z 15009KT 23/19 A2995 RMK A01 T02260194  RH  082%=      5-min Rain = 0
KQU1 250623Z 14009KT 23/19 A2995 RMK A01 T02260194  RH  083%=      5-min Rain = 0
KQU1 250624Z 14008KT 23/19 A2995 RMK A01 T02250194  RH  083%=      5-min Rain = 0
KQU1 250625Z 15009KT 23/19 A2995 RMK A01 T02250194  RH  083%=      5-min Rain = 0
KQU1 250626Z 15010KT 23/19 A2995 RMK A01 T02250194  RH  083%=      5-min Rain = 0
KQU1 250627Z 15010KT 22/19 A2995 RMK A01 T02240194  RH  083%=      5-min Rain = 0
KQU1 250628Z 15010KT 22/19 A2995 RMK A01 T02240194  RH  083%=      5-min Rain = 0
KQU1 250629Z 15008KT 22/19 A2995 RMK A01 T02240194  RH  083%=      5-min Rain = 0
KQU1 250630Z 15010KT 22/19 A2995 RMK A01 T02240194  RH  083%=      5-min Rain = 0
KQU1 250631Z 15008KT 22/19 A2995 RMK A01 T02230194  RH  083%=      5-min Rain = 0
KQU1 250632Z 16008KT 22/19 A2995 RMK A01 T02230194  RH  084%=      5-min Rain = 0
KQU1 250633Z 16007KT 22/19 A2995 RMK A01 T02220193  RH  084%=      5-min Rain = 0
KQU1 250634Z 15007KT 22/19 A2995 RMK A01 T02210194  RH  084%=      5-min Rain = 0
KQU1 250635Z 16007KT 22/19 A2995 RMK A01 T02210194  RH  084%=      5-min Rain = 0
KQU1 250636Z 16007KT 22/19 A2995 RMK A01 T02210194  RH  085%=      5-min Rain = 0
KQU1 250637Z 16007KT 22/19 A2995 RMK A01 T02210194  RH  085%=      5-min Rain = 0
KQU1 250638Z 16007KT 22/20 A2995 RMK A01 T02210195  RH  085%=      5-min Rain = 0
KQU1 250639Z 16007KT 22/20 A2995 RMK A01 T02210195  RH  085%=      5-min Rain = 0
KQU1 250640Z 16007KT 22/20 A2995 RMK A01 T02210195  RH  085%=      5-min Rain = 0
KQU1 250641Z 16008KT 22/20 A2995 RMK A01 T02210195  RH  085%=      5-min Rain = 0
KQU1 250642Z 16009KT 22/20 A2995 RMK A01 T02210195  RH  085%=      5-min Rain = 0
KQU1 250643Z 16009KT 22/20 A2995 RMK A01 T02210196  RH  085%=      5-min Rain = 0
KQU1 250644Z 17007KT 22/20 A2995 RMK A01 T02210196  RH  085%=      5-min Rain = 0
KQU1 250645Z 17008KT 22/20 A2995 RMK A01 T02210195  RH  085%=      5-min Rain = 0
KQU1 250646Z 17007KT 22/20 A2995 RMK A01 T02210195  RH  086%=      5-min Rain = 0
KQU1 250647Z 17008KT 22/20 A2995 RMK A01 T02200196  RH  086%=      5-min Rain = 0
KQU1 250648Z 17007KT 22/20 A2995 RMK A01 T02200196  RH  086%=      5-min Rain = 0
KQU1 250649Z 17007KT 22/20 A2995 RMK A01 T02200196  RH  086%=      5-min Rain = 0
KQU1 250650Z 17008KT 22/20 A2995 RMK A01 T02200196  RH  086%=      5-min Rain = 0
KQU1 250651Z 16007KT 22/20 A2995 RMK A01 T02190196  RH  086%=      5-min Rain = 0
KQU1 250652Z 16007KT 22/20 A2995 RMK A01 T02190196  RH  086%=      5-min Rain = 0
KQU1 250653Z 16006KT 22/20 A2995 RMK A01 T02190196  RH  087%=      5-min Rain = 0
KQU1 250654Z 16006KT 22/20 A2995 RMK A01 T02190195  RH  087%=      5-min Rain = 0
KQU1 250655Z 17005KT 22/20 A2995 RMK A01 T02180195  RH  087%=      5-min Rain = 0
KQU1 250656Z 17005KT 22/20 A2995 RMK A01 T02180195  RH  087%=      5-min Rain = 0
KQU1 250657Z 18005KT 22/19 A2995 RMK A01 T02170194  RH  087%=      5-min Rain = 0
KQU1 250658Z 18005KT 22/19 A2995 RMK A01 T02160194  RH  087%=      5-min Rain = 0
KQU1 250659Z 18005KT 22/19 A2995 RMK A01 T02160194  RH  087%=      5-min Rain = 0
KQU1 250700Z 18005KT 22/19 A2995 RMK A01 T02150193  RH  087%=      5-min Rain = 0
KQU1 250701Z 18004KT 22/19 A2995 RMK A01 T02150193  RH  087%=      5-min Rain = 0
KQU1 250702Z 18004KT 21/19 A2995 RMK A01 T02140193  RH  087%=      5-min Rain = 0
KQU1 250703Z 18004KT 21/19 A2995 RMK A01 T02140192  RH  087%=      5-min Rain = 0
KQU1 250704Z 17004KT 21/19 A2995 RMK A01 T02130192  RH  088%=      5-min Rain = 0
KQU1 250705Z 17004KT 21/19 A2995 RMK A01 T02130191  RH  088%=      5-min Rain = 0
KQU1 250706Z 16004KT 21/19 A2995 RMK A01 T02120191  RH  088%=      5-min Rain = 0
KQU1 250707Z 16004KT 21/19 A2995 RMK A01 T02120191  RH  088%=      5-min Rain = 0
KQU1 250708Z 16003KT 21/19 A2995 RMK A01 T02110190  RH  088%=      5-min Rain = 0
KQU1 250709Z 15003KT 21/19 A2995 RMK A01 T02110190  RH  088%=      5-min Rain = 0
KQU1 250710Z 15003KT 21/19 A2995 RMK A01 T02100189  RH  088%=      5-min Rain = 0
KQU1 250711Z 16004KT 21/19 A2995 RMK A01 T02100189  RH  088%=      5-min Rain = 0
KQU1 250712Z 16004KT 21/19 A2995 RMK A01 T02090189  RH  088%=      5-min Rain = 0
KQU1 250713Z 16003KT 21/19 A2995 RMK A01 T02090189  RH  089%=      5-min Rain = 0
KQU1 250714Z 16003KT 21/19 A2995 RMK A01 T02090190  RH  089%=      5-min Rain = 0
KQU1 250715Z 16003KT 21/19 A2995 RMK A01 T02080190  RH  089%=      5-min Rain = 0
KQU1 250716Z 17003KT 21/19 A2995 RMK A01 T02080190  RH  089%=      5-min Rain = 0
KQU1 250717Z 17004KT 21/19 A2995 RMK A01 T02080190  RH  089%=      5-min Rain = 0
KQU1 250718Z 17004KT 21/19 A2995 RMK A01 T02080190  RH  089%=      5-min Rain = 0
KQU1 250719Z 17003KT 21/19 A2995 RMK A01 T02080189  RH  089%=      5-min Rain = 0
KQU1 250720Z 17003KT 21/19 A2995 RMK A01 T02070188  RH  089%=      5-min Rain = 0
KQU1 250721Z 17003KT 21/19 A2995 RMK A01 T02060187  RH  089%=      5-min Rain = 0
KQU1 250722Z 17002KT 21/19 A2995 RMK A01 T02050187  RH  089%=      5-min Rain = 0
KQU1 250723Z 18003KT 21/19 A2995 RMK A01 T02050187  RH  089%=      5-min Rain = 0
KQU1 250724Z 18003KT 20/19 A2995 RMK A01 T02040186  RH  089%=      5-min Rain = 0
KQU1 250725Z 18003KT 20/19 A2995 RMK A01 T02040186  RH  090%=      5-min Rain = 0
KQU1 250726Z 19002KT 20/19 A2995 RMK A01 T02030187  RH  090%=      5-min Rain = 0
KQU1 250727Z 19002KT 20/19 A2995 RMK A01 T02030187  RH  090%=      5-min Rain = 0
KQU1 250728Z 19002KT 20/19 A2995 RMK A01 T02030187  RH  090%=      5-min Rain = 0
KQU1 250729Z 19002KT 20/19 A2995 RMK A01 T02030188  RH  091%=      5-min Rain = 0
KQU1 250730Z 19001KT 20/19 A2995 RMK A01 T02040188  RH  091%=      5-min Rain = 0
KQU1 250731Z 19001KT 20/19 A2995 RMK A01 T02040188  RH  091%=      5-min Rain = 0
KQU1 250732Z 20001KT 20/19 A2995 RMK A01 T02040189  RH  091%=      5-min Rain = 0
KQU1 250733Z 21001KT 20/19 A2995 RMK A01 T02040189  RH  091%=      5-min Rain = 0
KQU1 250734Z 21000KT 21/19 A2995 RMK A01 T02050189  RH  091%=      5-min Rain = 0
KQU1 250735Z 00000KT 21/19 A2995 RMK A01 T02050190  RH  091%=      5-min Rain = 0
KQU1 250736Z 00000KT 21/19 A2995 RMK A01 T02050190  RH  091%=      5-min Rain = 0
KQU1 250737Z 04001KT 21/19 A2995 RMK A01 T02060190  RH  091%=      5-min Rain = 0
KQU1 250738Z 04000KT 21/19 A2995 RMK A01 T02060191  RH  091%=      5-min Rain = 0
KQU1 250739Z 00000KT 21/19 A2995 RMK A01 T02070191  RH  091%=      5-min Rain = 0
KQU1 250740Z 00000KT 21/19 A2995 RMK A01 T02070192  RH  091%=      5-min Rain = 0
KQU1 250741Z 00000KT 21/19 A2995 RMK A01 T02080192  RH  091%=      5-min Rain = 0
KQU1 250742Z 23001KT 21/19 A2995 RMK A01 T02090192  RH  090%=      5-min Rain = 0
KQU1 250743Z 23002KT 21/19 A2996 RMK A01 T02090193  RH  090%=      5-min Rain = 0
KQU1 250744Z 22002KT 21/19 A2996 RMK A01 T02100193  RH  090%=      5-min Rain = 0
KQU1 250745Z 23002KT 21/19 A2996 RMK A01 T02100193  RH  090%=      5-min Rain = 0
KQU1 250746Z 23002KT 21/19 A2995 RMK A01 T02110193  RH  089%=      5-min Rain = 0
KQU1 250747Z 23001KT 21/19 A2995 RMK A01 T02110193  RH  089%=      5-min Rain = 0
KQU1 250748Z 23001KT 21/19 A2995 RMK A01 T02110193  RH  089%=      5-min Rain = 0
KQU1 250749Z 23001KT 21/19 A2995 RMK A01 T02120193  RH  089%=      5-min Rain = 0
KQU1 250750Z 23001KT 21/19 A2995 RMK A01 T02120193  RH  089%=      5-min Rain = 0
KQU1 250751Z 23001KT 21/19 A2995 RMK A01 T02120192  RH  089%=      5-min Rain = 0
KQU1 250752Z 23000KT 21/19 A2995 RMK A01 T02120192  RH  089%=      5-min Rain = 0
KQU1 250753Z 00000KT 21/19 A2995 RMK A01 T02120192  RH  088%=      5-min Rain = 0
KQU1 250754Z 00000KT 21/19 A2995 RMK A01 T02120192  RH  088%=      5-min Rain = 0
KQU1 250755Z 00000KT 21/19 A2995 RMK A01 T02120192  RH  088%=      5-min Rain = 0
KQU1 250756Z 00000KT 21/19 A2995 RMK A01 T02120192  RH  088%=      5-min Rain = 0
KQU1 250757Z 00000KT 21/19 A2995 RMK A01 T02120192  RH  088%=      5-min Rain = 0
KQU1 250758Z 00000KT 21/19 A2995 RMK A01 T02120192  RH  088%=      5-min Rain = 0
KQU1 250759Z 00000KT 21/19 A2995 RMK A01 T02120192  RH  088%=      5-min Rain = 0
KQU1 250800Z 00000KT 21/19 A2995 RMK A01 T02120191  RH  088%=      5-min Rain = 0
KQU1 250801Z 00000KT 21/19 A2995 RMK A01 T02120191  RH  088%=      5-min Rain = 0
KQU1 250802Z 00000KT 21/19 A2996 RMK A01 T02120191  RH  088%=      5-min Rain = 0
KQU1 250803Z 00000KT 21/19 A2996 RMK A01 T02110191  RH  088%=      5-min Rain = 0
KQU1 250804Z 18001KT 21/19 A2996 RMK A01 T02110191  RH  088%=      5-min Rain = 0
KQU1 250805Z 17002KT 21/19 A2996 RMK A01 T02120191  RH  088%=      5-min Rain = 0
KQU1 250806Z 14002KT 21/19 A2996 RMK A01 T02120193  RH  089%=      5-min Rain = 0
KQU1 250807Z 14002KT 21/19 A2996 RMK A01 T02130194  RH  089%=      5-min Rain = 0
KQU1 250808Z 14001KT 21/19 A2996 RMK A01 T02130194  RH  089%=      5-min Rain = 0
KQU1 250809Z 15000KT 21/19 A2996 RMK A01 T02130194  RH  089%=      5-min Rain = 0
KQU1 250810Z 15000KT 21/19 A2996 RMK A01 T02130193  RH  088%=      5-min Rain = 0
KQU1 250811Z 24001KT 21/19 A2996 RMK A01 T02130193  RH  088%=      5-min Rain = 0
KQU1 250812Z 25002KT 21/19 A2996 RMK A01 T02130193  RH  088%=      5-min Rain = 0
KQU1 250813Z 26002KT 21/19 A2996 RMK A01 T02120193  RH  089%=      5-min Rain = 0
KQU1 250814Z 26002KT 21/19 A2996 RMK A01 T02120193  RH  089%=      5-min Rain = 0
KQU1 250815Z 26001KT 21/19 A2996 RMK A01 T02120193  RH  089%=      5-min Rain = 0
KQU1 250816Z 26001KT 21/19 A2996 RMK A01 T02120193  RH  089%=      5-min Rain = 0
KQU1 250817Z 27001KT 21/19 A2996 RMK A01 T02130193  RH  089%=      5-min Rain = 0
KQU1 250818Z 00000KT 21/19 A2996 RMK A01 T02130193  RH  089%=      5-min Rain = 0
KQU1 250819Z 00000KT 21/19 A2996 RMK A01 T02130193  RH  089%=      5-min Rain = 0
KQU1 250820Z 00000KT 21/19 A2996 RMK A01 T02130193  RH  089%=      5-min Rain = 0
KQU1 250821Z 22000KT 21/19 A2996 RMK A01 T02130193  RH  089%=      5-min Rain = 0
KQU1 250822Z 12001KT 21/19 A2996 RMK A01 T02130194  RH  089%=      5-min Rain = 0
KQU1 250823Z 13000KT 21/19 A2996 RMK A01 T02130194  RH  089%=      5-min Rain = 0
KQU1 250824Z 14000KT 21/19 A2996 RMK A01 T02140194  RH  089%=      5-min Rain = 0
KQU1 250825Z 00000KT 21/19 A2996 RMK A01 T02140194  RH  089%=      5-min Rain = 0
KQU1 250826Z 00000KT 21/20 A2996 RMK A01 T02140195  RH  089%=      5-min Rain = 0
KQU1 250827Z 00000KT 21/20 A2996 RMK A01 T02140195  RH  089%=      5-min Rain = 0
KQU1 250828Z 00000KT 21/19 A2996 RMK A01 T02140194  RH  089%=      5-min Rain = 0
KQU1 250829Z 15000KT 21/19 A2996 RMK A01 T02140194  RH  088%=      5-min Rain = 0
KQU1 250830Z 15001KT 21/19 A2996 RMK A01 T02140194  RH  088%=      5-min Rain = 0
KQU1 250831Z 14002KT 21/19 A2996 RMK A01 T02140194  RH  088%=      5-min Rain = 0
KQU1 250832Z 13002KT 21/19 A2996 RMK A01 T02140194  RH  088%=      5-min Rain = 0
KQU1 250833Z 13002KT 21/19 A2996 RMK A01 T02140194  RH  088%=      5-min Rain = 0
KQU1 250834Z 14002KT 21/19 A2996 RMK A01 T02140194  RH  089%=      5-min Rain = 0
KQU1 250835Z 14002KT 21/19 A2996 RMK A01 T02130194  RH  089%=      5-min Rain = 0
KQU1 250836Z 16002KT 21/19 A2996 RMK A01 T02130194  RH  089%=      5-min Rain = 0
KQU1 250837Z 16002KT 21/19 A2996 RMK A01 T02130194  RH  089%=      5-min Rain = 0
KQU1 250838Z 16001KT 21/19 A2996 RMK A01 T02120194  RH  089%=      5-min Rain = 0
KQU1 250839Z 18001KT 21/19 A2996 RMK A01 T02120194  RH  089%=      5-min Rain = 0
KQU1 250840Z 19000KT 21/19 A2996 RMK A01 T02120194  RH  089%=      5-min Rain = 0
KQU1 250841Z 00000KT 21/19 A2996 RMK A01 T02120194  RH  089%=      5-min Rain = 0
KQU1 250842Z 16000KT 21/19 A2996 RMK A01 T02110194  RH  089%=      5-min Rain = 0
KQU1 250843Z 16000KT 21/19 A2996 RMK A01 T02110193  RH  089%=      5-min Rain = 0
KQU1 250844Z 15001KT 21/19 A2996 RMK A01 T02110193  RH  090%=      5-min Rain = 0
KQU1 250845Z 15001KT 21/19 A2996 RMK A01 T02110194  RH  090%=      5-min Rain = 0
KQU1 250846Z 14001KT 21/19 A2996 RMK A01 T02110194  RH  090%=      5-min Rain = 0
KQU1 250847Z 14001KT 21/19 A2996 RMK A01 T02110194  RH  090%=      5-min Rain = 0
KQU1 250848Z 14002KT 21/19 A2996 RMK A01 T02110194  RH  090%=      5-min Rain = 0
KQU1 250849Z 15002KT 21/19 A2996 RMK A01 T02110194  RH  090%=      5-min Rain = 0
KQU1 250850Z 16002KT 21/20 A2996 RMK A01 T02110195  RH  090%=      5-min Rain = 0
KQU1 250851Z 16002KT 21/20 A2996 RMK A01 T02110195  RH  090%=      5-min Rain = 0
KQU1 250852Z 17002KT 21/20 A2996 RMK A01 T02120196  RH  090%=      5-min Rain = 0
KQU1 250853Z 18003KT 21/20 A2996 RMK A01 T02120196  RH  091%=      5-min Rain = 0
KQU1 250854Z 18003KT 21/20 A2996 RMK A01 T02120196  RH  091%=      5-min Rain = 0
KQU1 250855Z 17003KT 21/20 A2996 RMK A01 T02130197  RH  091%=      5-min Rain = 0
KQU1 250856Z 18003KT 21/20 A2996 RMK A01 T02130197  RH  091%=      5-min Rain = 0
KQU1 250857Z 18002KT 21/20 A2996 RMK A01 T02130197  RH  091%=      5-min Rain = 0
KQU1 250858Z 18002KT 21/20 A2996 RMK A01 T02140197  RH  090%=      5-min Rain = 0
KQU1 250859Z 17002KT 21/20 A2996 RMK A01 T02140197  RH  090%=      5-min Rain = 0
KQU1 250900Z 17002KT 21/20 A2996 RMK A01 T02140197  RH  090%=      5-min Rain = 0
KQU1 250901Z 17002KT 21/20 A2996 RMK A01 T02140197  RH  090%=      5-min Rain = 0
KQU1 250902Z 17002KT 21/20 A2996 RMK A01 T02130197  RH  091%=      5-min Rain = 0
KQU1 250903Z 17002KT 21/20 A2996 RMK A01 T02130198  RH  091%=      5-min Rain = 0
KQU1 250904Z 18002KT 21/20 A2996 RMK A01 T02130198  RH  091%=      5-min Rain = 0
KQU1 250905Z 18002KT 21/20 A2996 RMK A01 T02130198  RH  091%=      5-min Rain = 0
KQU1 250906Z 18002KT 21/20 A2996 RMK A01 T02130198  RH  091%=      5-min Rain = 0
KQU1 250907Z 17002KT 21/20 A2996 RMK A01 T02130198  RH  091%=      5-min Rain = 0
KQU1 250908Z 17002KT 21/20 A2996 RMK A01 T02130198  RH  091%=      5-min Rain = 0
KQU1 250909Z 16002KT 21/20 A2996 RMK A01 T02130198  RH  091%=      5-min Rain = 0
KQU1 250910Z 16002KT 21/20 A2996 RMK A01 T02130198  RH  091%=      5-min Rain = 0
KQU1 250911Z 17002KT 21/20 A2996 RMK A01 T02130198  RH  091%=      5-min Rain = 0
KQU1 250912Z 20002KT 21/20 A2996 RMK A01 T02140199  RH  091%=      5-min Rain = 0
KQU1 250913Z 21003KT 21/20 A2996 RMK A01 T02140199  RH  091%=      5-min Rain = 0
KQU1 250914Z 21003KT 21/20 A2996 RMK A01 T02140199  RH  091%=      5-min Rain = 0
KQU1 250915Z 19002KT 21/20 A2996 RMK A01 T02140199  RH  091%=      5-min Rain = 0
KQU1 250916Z 18002KT 21/20 A2996 RMK A01 T02140199  RH  091%=      5-min Rain = 0
KQU1 250917Z 16002KT 21/20 A2996 RMK A01 T02140199  RH  091%=      5-min Rain = 0
KQU1 250918Z 16003KT 21/20 A2996 RMK A01 T02140199  RH  091%=      5-min Rain = 0
KQU1 250919Z 16004KT 21/20 A2996 RMK A01 T02140199  RH  091%=      5-min Rain = 0
KQU1 250920Z 16004KT 21/20 A2996 RMK A01 T02140199  RH  091%=      5-min Rain = 0
KQU1 250921Z 16004KT 21/20 A2996 RMK A01 T02140199  RH  091%=      5-min Rain = 0
KQU1 250922Z 16004KT 21/20 A2996 RMK A01 T02140199  RH  092%=      5-min Rain = 0
KQU1 250923Z 17004KT 21/20 A2996 RMK A01 T02140199  RH  092%=      5-min Rain = 0
KQU1 250924Z 17004KT 21/20 A2996 RMK A01 T02140199  RH  092%=      5-min Rain = 0
KQU1 250925Z 17004KT 21/20 A2996 RMK A01 T02130199  RH  092%=      5-min Rain = 0
KQU1 250926Z 16004KT 21/20 A2996 RMK A01 T02130199  RH  092%=      5-min Rain = 0
KQU1 250927Z 16003KT 21/20 A2996 RMK A01 T02130199  RH  092%=      5-min Rain = 0
KQU1 250928Z 16004KT 21/20 A2996 RMK A01 T02130199  RH  092%=      5-min Rain = 0
KQU1 250929Z 16004KT 21/20 A2996 RMK A01 T02120199  RH  092%=      5-min Rain = 0
KQU1 250930Z 16004KT 21/20 A2996 RMK A01 T02120199  RH  092%=      5-min Rain = 0
KQU1 250931Z 15004KT 21/20 A2996 RMK A01 T02120198  RH  092%=      5-min Rain = 0
KQU1 250932Z 14005KT 21/20 A2996 RMK A01 T02110198  RH  092%=      5-min Rain = 0
KQU1 250933Z 13006KT 21/20 A2997 RMK A01 T02110198  RH  092%=      5-min Rain = 0
KQU1 250934Z 13005KT 21/20 A2997 RMK A01 T02110197  RH  092%=      5-min Rain = 0
KQU1 250935Z 12005KT 21/20 A2997 RMK A01 T02100197  RH  092%=      5-min Rain = 0
KQU1 250936Z 12005KT 21/20 A2997 RMK A01 T02100197  RH  092%=      5-min Rain = 0
KQU1 250937Z 13005KT 21/20 A2997 RMK A01 T02100197  RH  093%=      5-min Rain = 0
KQU1 250938Z 13004KT 21/20 A2997 RMK A01 T02100197  RH  093%=      5-min Rain = 0
KQU1 250939Z 13004KT 21/20 A2997 RMK A01 T02090197  RH  093%=      5-min Rain = 0
KQU1 250940Z 13003KT 21/20 A2997 RMK A01 T02090197  RH  093%=      5-min Rain = 0
KQU1 250941Z 13003KT 21/20 A2997 RMK A01 T02090197  RH  093%=      5-min Rain = 0
KQU1 250942Z 12004KT 21/20 A2997 RMK A01 T02080196  RH  093%=      5-min Rain = 0
KQU1 250943Z 12004KT 21/20 A2997 RMK A01 T02080196  RH  093%=      5-min Rain = 0
KQU1 250944Z 12005KT 21/20 A2997 RMK A01 T02070195  RH  093%=      5-min Rain = 0
KQU1 250945Z 12005KT 21/20 A2997 RMK A01 T02070195  RH  093%=      5-min Rain = 0
KQU1 250946Z 12005KT 21/20 A2997 RMK A01 T02060195  RH  093%=      5-min Rain = 0
KQU1 250947Z 12005KT 21/20 A2997 RMK A01 T02060195  RH  093%=      5-min Rain = 0
KQU1 250948Z 11005KT 21/20 A2997 RMK A01 T02060195  RH  093%=      5-min Rain = 0
KQU1 250949Z 12005KT 21/20 A2997 RMK A01 T02060196  RH  094%=      5-min Rain = 0
KQU1 250950Z 12004KT 21/20 A2997 RMK A01 T02060196  RH  094%=      5-min Rain = 0
KQU1 250951Z 12004KT 21/20 A2997 RMK A01 T02060196  RH  094%=      5-min Rain = 0
KQU1 250952Z 12005KT 21/20 A2997 RMK A01 T02060195  RH  094%=      5-min Rain = 0
KQU1 250953Z 12005KT 21/20 A2997 RMK A01 T02060195  RH  094%=      5-min Rain = 0
KQU1 250954Z 12005KT 21/20 A2997 RMK A01 T02050195  RH  094%=      5-min Rain = 0
KQU1 250955Z 12005KT 21/20 A2997 RMK A01 T02050195  RH  094%=      5-min Rain = 0
KQU1 250956Z 12004KT 21/20 A2997 RMK A01 T02050195  RH  094%=      5-min Rain = 0
KQU1 250957Z 12004KT 21/19 A2997 RMK A01 T02050194  RH  094%=      5-min Rain = 0
KQU1 250958Z 12004KT 20/19 A2997 RMK A01 T02040194  RH  094%=      5-min Rain = 0
KQU1 250959Z 11004KT 20/19 A2997 RMK A01 T02040194  RH  094%=      5-min Rain = 0
KQU1 251000Z 11004KT 20/19 A2997 RMK A01 T02040194  RH  094%=      5-min Rain = 0
KQU1 251001Z 11005KT 20/19 A2997 RMK A01 T02030194  RH  094%=      5-min Rain = 0
KQU1 251002Z 11005KT 20/19 A2997 RMK A01 T02030194  RH  094%=      5-min Rain = 0
KQU1 251003Z 11005KT 20/19 A2997 RMK A01 T02030194  RH  094%=      5-min Rain = 0
KQU1 251004Z 11005KT 20/19 A2997 RMK A01 T02030194  RH  094%=      5-min Rain = 0
KQU1 251005Z 11005KT 20/19 A2997 RMK A01 T02030194  RH  095%=      5-min Rain = 0
KQU1 251006Z 10005KT 20/19 A2997 RMK A01 T02030194  RH  095%=      5-min Rain = 0
KQU1 251007Z 11005KT 20/19 A2997 RMK A01 T02030194  RH  095%=      5-min Rain = 0
KQU1 251008Z 10005KT 20/19 A2997 RMK A01 T02020193  RH  095%=      5-min Rain = 0
KQU1 251009Z 10005KT 20/19 A2997 RMK A01 T02020193  RH  095%=      5-min Rain = 0
KQU1 251010Z 10004KT 20/19 A2997 RMK A01 T02020193  RH  095%=      5-min Rain = 0
KQU1 251011Z 11004KT 20/19 A2997 RMK A01 T02020193  RH  095%=      5-min Rain = 0
KQU1 251012Z 11004KT 20/19 A2997 RMK A01 T02010193  RH  095%=      5-min Rain = 0
KQU1 251013Z 11004KT 20/19 A2997 RMK A01 T02010192  RH  095%=      5-min Rain = 0
KQU1 251014Z 12005KT 20/19 A2997 RMK A01 T02010192  RH  095%=      5-min Rain = 0
KQU1 251015Z 12006KT 20/19 A2997 RMK A01 T02000191  RH  095%=      5-min Rain = 0
KQU1 251016Z 12005KT 20/19 A2997 RMK A01 T02000191  RH  095%=      5-min Rain = 0
KQU1 251017Z 11004KT 20/19 A2997 RMK A01 T01990191  RH  095%=      5-min Rain = 0
KQU1 251018Z 11004KT 20/19 A2997 RMK A01 T01990191  RH  095%=      5-min Rain = 0
KQU1 251019Z 11004KT 20/19 A2997 RMK A01 T01990190  RH  095%=      5-min Rain = 0
KQU1 251020Z 11003KT 20/19 A2997 RMK A01 T01990190  RH  095%=      5-min Rain = 0
KQU1 251021Z 11003KT 20/19 A2997 RMK A01 T01990190  RH  095%=      5-min Rain = 0
KQU1 251022Z 11003KT 20/19 A2997 RMK A01 T01980190  RH  095%=      5-min Rain = 0
KQU1 251023Z 11002KT 20/19 A2997 RMK A01 T01980190  RH  095%=      5-min Rain = 0
KQU1 251024Z 10002KT 20/19 A2997 RMK A01 T01980190  RH  095%=      5-min Rain = 0
KQU1 251025Z 10003KT 20/19 A2997 RMK A01 T01980190  RH  095%=      5-min Rain = 0
KQU1 251026Z 10003KT 20/19 A2997 RMK A01 T01980190  RH  095%=      5-min Rain = 0
KQU1 251027Z 10002KT 20/19 A2997 RMK A01 T01970189  RH  095%=      5-min Rain = 0
KQU1 251028Z 11003KT 20/19 A2997 RMK A01 T01970189  RH  095%=      5-min Rain = 0
KQU1 251029Z 12002KT 20/19 A2997 RMK A01 T01960188  RH  095%=      5-min Rain = 0
KQU1 251030Z 13001KT 20/19 A2997 RMK A01 T01960188  RH  095%=      5-min Rain = 0
KQU1 251031Z 13001KT 20/19 A2997 RMK A01 T01960188  RH  095%=      5-min Rain = 0
KQU1 251032Z 13001KT 20/19 A2997 RMK A01 T01960188  RH  095%=      5-min Rain = 0
KQU1 251033Z 13002KT 20/19 A2997 RMK A01 T01960188  RH  095%=      5-min Rain = 0
KQU1 251034Z 13002KT 20/19 A2997 RMK A01 T01950188  RH  095%=      5-min Rain = 0
KQU1 251035Z 13002KT 20/19 A2997 RMK A01 T01950188  RH  095%=      5-min Rain = 0
KQU1 251036Z 13002KT 20/19 A2997 RMK A01 T01950188  RH  095%=      5-min Rain = 0
KQU1 251037Z 12002KT 20/19 A2997 RMK A01 T01950187  RH  095%=      5-min Rain = 0
KQU1 251038Z 12002KT 20/19 A2997 RMK A01 T01950187  RH  095%=      5-min Rain = 0
KQU1 251039Z 13003KT 19/19 A2997 RMK A01 T01940187  RH  096%=      5-min Rain = 0
KQU1 251040Z 13003KT 19/19 A2997 RMK A01 T01940187  RH  096%=      5-min Rain = 0
KQU1 251041Z 14004KT 19/19 A2998 RMK A01 T01940187  RH  096%=      5-min Rain = 0
KQU1 251042Z 14003KT 19/19 A2998 RMK A01 T01940187  RH  096%=      5-min Rain = 0
KQU1 251043Z 16004KT 19/19 A2998 RMK A01 T01940187  RH  096%=      5-min Rain = 0
KQU1 251044Z 16004KT 19/19 A2998 RMK A01 T01930186  RH  096%=      5-min Rain = 0
KQU1 251045Z 16004KT 19/19 A2998 RMK A01 T01930186  RH  096%=      5-min Rain = 0
KQU1 251046Z 16004KT 19/19 A2998 RMK A01 T01920186  RH  096%=      5-min Rain = 0
KQU1 251047Z 17004KT 19/19 A2998 RMK A01 T01920185  RH  096%=      5-min Rain = 0
KQU1 251048Z 17004KT 19/19 A2998 RMK A01 T01920185  RH  096%=      5-min Rain = 0
KQU1 251049Z 17004KT 19/19 A2998 RMK A01 T01920185  RH  096%=      5-min Rain = 0
KQU1 251050Z 17004KT 19/19 A2998 RMK A01 T01920185  RH  096%=      5-min Rain = 0
KQU1 251051Z 16004KT 19/19 A2998 RMK A01 T01910185  RH  096%=      5-min Rain = 0
KQU1 251052Z 16005KT 19/19 A2998 RMK A01 T01910185  RH  096%=      5-min Rain = 0
KQU1 251053Z 16004KT 19/18 A2998 RMK A01 T01900183  RH  096%=      5-min Rain = 0
KQU1 251054Z 16004KT 19/18 A2998 RMK A01 T01890183  RH  096%=      5-min Rain = 0
KQU1 251055Z 16005KT 19/18 A2999 RMK A01 T01890182  RH  096%=      5-min Rain = 0
KQU1 251056Z 16005KT 19/18 A2999 RMK A01 T01890182  RH  096%=      5-min Rain = 0
KQU1 251057Z 16004KT 19/18 A2999 RMK A01 T01890183  RH  096%=      5-min Rain = 0
KQU1 251058Z 17004KT 19/18 A2999 RMK A01 T01890184  RH  097%=      5-min Rain = 0
KQU1 251059Z 17004KT 19/18 A2999 RMK A01 T01900184  RH  097%=      5-min Rain = 0
KQU1 251100Z 17004KT 19/18 A2999 RMK A01 T01890184  RH  097%=      5-min Rain = 0
KQU1 251101Z 17004KT 19/18 A2999 RMK A01 T01890184  RH  097%=      5-min Rain = 0
KQU1 251102Z 17004KT 19/19 A2999 RMK A01 T01900185  RH  097%=      5-min Rain = 0
KQU1 251103Z 17005KT 19/18 A2999 RMK A01 T01900184  RH  097%=      5-min Rain = 0
KQU1 251104Z 18006KT 19/18 A2999 RMK A01 T01890184  RH  097%=      5-min Rain = 0
KQU1 251105Z 18005KT 19/18 A2999 RMK A01 T01890184  RH  097%=      5-min Rain = 0
KQU1 251106Z 18005KT 19/18 A2999 RMK A01 T01890184  RH  097%=      5-min Rain = 0
KQU1 251107Z 18006KT 19/18 A2999 RMK A01 T01890184  RH  097%=      5-min Rain = 0
KQU1 251108Z 18006KT 19/18 A2999 RMK A01 T01890184  RH  097%=      5-min Rain = 0
KQU1 251109Z 18006KT 19/18 A2999 RMK A01 T01890184  RH  097%=      5-min Rain = 0
KQU1 251110Z 18006KT 19/18 A2999 RMK A01 T01890184  RH  097%=      5-min Rain = 0
KQU1 251111Z 18006KT 19/18 A2999 RMK A01 T01880183  RH  097%=      5-min Rain = 0
KQU1 251112Z 18005KT 19/18 A2999 RMK A01 T01880182  RH  097%=      5-min Rain = 0
KQU1 251113Z 16004KT 19/18 A2999 RMK A01 T01870182  RH  097%=      5-min Rain = 0
KQU1 251114Z 17004KT 19/18 A2999 RMK A01 T01870181  RH  097%=      5-min Rain = 0
KQU1 251115Z 17005KT 19/18 A2999 RMK A01 T01870182  RH  097%=      5-min Rain = 0
KQU1 251116Z 17005KT 19/18 A30 RMK A01 T01870182  RH  097%=      5-min Rain = 0
KQU1 251117Z 17005KT 19/18 A30 RMK A01 T01880183  RH  097%=      5-min Rain = 0
KQU1 251118Z 17005KT 19/18 A30 RMK A01 T01880184  RH  097%=      5-min Rain = 0
KQU1 251119Z 17004KT 19/18 A30 RMK A01 T01880184  RH  097%=      5-min Rain = 0
KQU1 251120Z 17003KT 19/18 A30 RMK A01 T01890184  RH  097%=      5-min Rain = 0
KQU1 251121Z 19003KT 19/18 A30 RMK A01 T01890184  RH  097%=      5-min Rain = 0
KQU1 251122Z 20002KT 19/19 A30 RMK A01 T01890185  RH  097%=      5-min Rain = 0
KQU1 251123Z 19002KT 19/19 A30 RMK A01 T01890185  RH  097%=      5-min Rain = 0
KQU1 251124Z 19004KT 19/19 A30 RMK A01 T01900186  RH  098%=      5-min Rain = 0
KQU1 251125Z 18005KT 19/19 A30 RMK A01 T01910188  RH  098%=      5-min Rain = 0
KQU1 251126Z 19005KT 19/19 A30 RMK A01 T01920189  RH  098%=      5-min Rain = 0
KQU1 251127Z 18007KT 19/19 A30 RMK A01 T01930190  RH  098%=      5-min Rain = 0
KQU1 251128Z 19006KT 19/19 A30 RMK A01 T01930189  RH  098%=      5-min Rain = 0
KQU1 251129Z 19005KT 19/19 A30 RMK A01 T01930189  RH  098%=      5-min Rain = 0
KQU1 251130Z 19005KT 19/19 A30 RMK A01 T01930190  RH  098%=      5-min Rain = 0
KQU1 251131Z 19005KT 19/19 A30 RMK A01 T01930189  RH  098%=      5-min Rain = 0
KQU1 251132Z 19005KT 19/19 A2999 RMK A01 T01930189  RH  098%=      5-min Rain = 0
KQU1 251133Z 19005KT 19/19 A2999 RMK A01 T01930189  RH  098%=      5-min Rain = 0
KQU1 251134Z 20005KT 19/19 A30 RMK A01 T01930189  RH  098%=      5-min Rain = 0
KQU1 251135Z 20005KT 19/19 A30 RMK A01 T01930189  RH  098%=      5-min Rain = 0
KQU1 251136Z 20005KT 19/19 A2999 RMK A01 T01920189  RH  098%=      5-min Rain = 0
KQU1 251137Z 19006KT 19/19 A2999 RMK A01 T01920188  RH  098%=      5-min Rain = 0
KQU1 251138Z 20006KT 19/19 A30 RMK A01 T01920188  RH  098%=      5-min Rain = 0
KQU1 251139Z 19005KT 19/19 A30 RMK A01 T01910188  RH  098%=      5-min Rain = 0
KQU1 251140Z 19005KT 19/19 A2999 RMK A01 T01910188  RH  098%=      5-min Rain = 0
KQU1 251141Z 19005KT 19/19 A2999 RMK A01 T01910187  RH  098%=      5-min Rain = 0
KQU1 251142Z 19005KT 19/19 A2999 RMK A01 T01910187  RH  098%=      5-min Rain = 0
KQU1 251143Z 20004KT 19/19 A2999 RMK A01 T01900187  RH  098%=      5-min Rain = 0
KQU1 251144Z 19003KT 19/19 A2999 RMK A01 T01900186  RH  098%=      5-min Rain = 0
KQU1 251145Z 19003KT 19/19 A2999 RMK A01 T01900186  RH  098%=      5-min Rain = 0
KQU1 251146Z 20002KT 19/19 A2999 RMK A01 T01890186  RH  098%=      5-min Rain = 0
KQU1 251147Z 20003KT 19/19 A2999 RMK A01 T01890186  RH  098%=      5-min Rain = 0
KQU1 251148Z 21002KT 19/19 A2999 RMK A01 T01890186  RH  098%=      5-min Rain = 0
KQU1 251149Z 21002KT 19/19 A2999 RMK A01 T01890185  RH  098%=      5-min Rain = 0
KQU1 251150Z 21002KT 19/19 A2999 RMK A01 T01890185  RH  098%=      5-min Rain = 0
KQU1 251151Z 20002KT 19/19 A2999 RMK A01 T01880185  RH  098%=      5-min Rain = 0
KQU1 251152Z 19002KT 19/19 A30 RMK A01 T01880185  RH  098%=      5-min Rain = 0
KQU1 251153Z 18002KT 19/18 A30 RMK A01 T01880184  RH  098%=      5-min Rain = 0
KQU1 251154Z 16002KT 19/18 A30 RMK A01 T01870184  RH  098%=      5-min Rain = 0
KQU1 251155Z 15003KT 19/18 A30 RMK A01 T01870184  RH  098%=      5-min Rain = 0
KQU1 251156Z 15003KT 19/18 A30 RMK A01 T01870183  RH  098%=      5-min Rain = 0
KQU1 251157Z 15003KT 19/18 A30 RMK A01 T01870183  RH  098%=      5-min Rain = 0
KQU1 251158Z 15004KT 19/18 A30 RMK A01 T01860183  RH  098%=      5-min Rain = 0
KQU1 251159Z 15004KT 19/18 A30 RMK A01 T01860183  RH  098%=      5-min Rain = 0
KQU1 251200Z 15004KT 19/18 A30 RMK A01 T01860182  RH  098%=      5-min Rain = 0
KQU1 251201Z 16004KT 19/18 A30 RMK A01 T01860183  RH  098%=      5-min Rain = 0
KQU1 251202Z 16003KT 19/18 A30 RMK A01 T01860183  RH  098%=      5-min Rain = 0
KQU1 251203Z 17004KT 19/18 A30 RMK A01 T01860183  RH  098%=      5-min Rain = 0
KQU1 251204Z 17004KT 19/18 A30 RMK A01 T01860184  RH  098%=      5-min Rain = 0
KQU1 251205Z 17004KT 19/18 A30 RMK A01 T01870184  RH  098%=      5-min Rain = 0
KQU1 251206Z 18004KT 19/18 A30 RMK A01 T01870184  RH  098%=      5-min Rain = 0
KQU1 251207Z 18004KT 19/18 A30 RMK A01 T01870184  RH  098%=      5-min Rain = 0
KQU1 251208Z 18004KT 19/18 A30 RMK A01 T01870184  RH  098%=      5-min Rain = 0
KQU1 251209Z 18004KT 19/19 A30 RMK A01 T01870185  RH  098%=      5-min Rain = 0
KQU1 251210Z 18004KT 19/18 A30 RMK A01 T01870184  RH  098%=      5-min Rain = 0
KQU1 251211Z 17004KT 19/18 A30 RMK A01 T01870184  RH  098%=      5-min Rain = 0
KQU1 251212Z 17004KT 19/18 A30 RMK A01 T01870184  RH  098%=      5-min Rain = 0
KQU1 251213Z 17003KT 19/18 A30 RMK A01 T01870184  RH  098%=      5-min Rain = 0
KQU1 251214Z 18003KT 19/19 A30 RMK A01 T01870185  RH  098%=      5-min Rain = 0
KQU1 251215Z 18003KT 19/19 A30 RMK A01 T01880185  RH  098%=      5-min Rain = 0
KQU1 251216Z 18003KT 19/19 A30 RMK A01 T01880185  RH  098%=      5-min Rain = 0
KQU1 251217Z 18003KT 19/19 A30 RMK A01 T01880185  RH  098%=      5-min Rain = 0
KQU1 251218Z 18003KT 19/19 A30 RMK A01 T01880185  RH  098%=      5-min Rain = 0
KQU1 251219Z 19002KT 19/19 A30 RMK A01 T01880185  RH  098%=      5-min Rain = 0
KQU1 251220Z 21002KT 19/19 A30 RMK A01 T01890186  RH  098%=      5-min Rain = 0
KQU1 251221Z 21000KT 19/19 A30 RMK A01 T01890186  RH  098%=      5-min Rain = 0
KQU1 251222Z 21001KT 19/19 A30 RMK A01 T01890187  RH  098%=      5-min Rain = 0
KQU1 251223Z 21000KT 19/19 A30 RMK A01 T01900187  RH  098%=      5-min Rain = 0
KQU1 251224Z 21000KT 19/19 A30 RMK A01 T01900188  RH  098%=      5-min Rain = 0
KQU1 251225Z 00000KT 19/19 A30 RMK A01 T01910188  RH  098%=      5-min Rain = 0
KQU1 251226Z 00000KT 19/19 A30 RMK A01 T01910189  RH  098%=      5-min Rain = 0
KQU1 251227Z 00000KT 19/19 A30 RMK A01 T01920190  RH  098%=      5-min Rain = 0
KQU1 251228Z 00000KT 19/19 A30 RMK A01 T01940192  RH  098%=      5-min Rain = 0
KQU1 251229Z 00000KT 20/19 A30 RMK A01 T01950193  RH  099%=      5-min Rain = 0
KQU1 251230Z 00000KT 20/19 A30 RMK A01 T01960194  RH  098%=      5-min Rain = 0
KQU1 251231Z 00000KT 20/19 A30 RMK A01 T01960194  RH  098%=      5-min Rain = 0
KQU1 251232Z 10000KT 20/19 A30 RMK A01 T01960193  RH  098%=      5-min Rain = 0
KQU1 251233Z 09000KT 20/19 A30 RMK A01 T01960192  RH  098%=      5-min Rain = 0
KQU1 251234Z 10000KT 20/19 A30 RMK A01 T01960192  RH  097%=      5-min Rain = 0
KQU1 251235Z 10000KT 20/19 A30 RMK A01 T01960192  RH  097%=      5-min Rain = 0
KQU1 251236Z 00000KT 20/19 A30 RMK A01 T01960192  RH  097%=      5-min Rain = 0
KQU1 251237Z 00000KT 20/19 A30 RMK A01 T01960192  RH  097%=      5-min Rain = 0
KQU1 251238Z 00000KT 20/19 A30 RMK A01 T01970193  RH  097%=      5-min Rain = 0
KQU1 251239Z 00000KT 20/19 A30 RMK A01 T01970193  RH  098%=      5-min Rain = 0
KQU1 251240Z 00000KT 20/19 A30 RMK A01 T01980194  RH  098%=      5-min Rain = 0
KQU1 251241Z 26001KT 20/19 A30 RMK A01 T01980194  RH  097%=      5-min Rain = 0
KQU1 251242Z 28001KT 20/19 A30 RMK A01 T01970192  RH  097%=      5-min Rain = 0
KQU1 251243Z 29002KT 20/19 A30 RMK A01 T01970192  RH  097%=      5-min Rain = 0
KQU1 251244Z 30003KT 20/19 A30 RMK A01 T01980192  RH  096%=      5-min Rain = 0
KQU1 251245Z 30002KT 20/19 A30 RMK A01 T01980191  RH  096%=      5-min Rain = 0
KQU1 251246Z 30002KT 20/19 A30 RMK A01 T01980191  RH  096%=      5-min Rain = 0
KQU1 251247Z 30002KT 20/19 A3001 RMK A01 T01990191  RH  095%=      5-min Rain = 0
KQU1 251248Z 30003KT 20/19 A3001 RMK A01 T01990191  RH  095%=      5-min Rain = 0
KQU1 251249Z 31003KT 20/19 A3001 RMK A01 T02000190  RH  094%=      5-min Rain = 0
KQU1 251250Z 31003KT 20/19 A3001 RMK A01 T02010191  RH  094%=      5-min Rain = 0
KQU1 251251Z 31004KT 20/19 A3001 RMK A01 T02010190  RH  093%=      5-min Rain = 0
KQU1 251252Z 32004KT 20/19 A3001 RMK A01 T02020190  RH  093%=      5-min Rain = 0
KQU1 251253Z 32004KT 20/19 A3001 RMK A01 T02030191  RH  093%=      5-min Rain = 0
KQU1 251254Z 32004KT 20/19 A3001 RMK A01 T02040190  RH  092%=      5-min Rain = 0
KQU1 251255Z 31003KT 20/19 A3001 RMK A01 T02040189  RH  091%=      5-min Rain = 0
KQU1 251256Z 32003KT 21/19 A3001 RMK A01 T02050188  RH  090%=      5-min Rain = 0
KQU1 251257Z 32003KT 21/19 A3001 RMK A01 T02050188  RH  090%=      5-min Rain = 0
KQU1 251258Z 32004KT 21/19 A3001 RMK A01 T02060186  RH  089%=      5-min Rain = 0
KQU1 251259Z 31004KT 21/18 A3001 RMK A01 T02060183  RH  087%=      5-min Rain = 0
KQU1 251300Z 31003KT 21/18 A3001 RMK A01 T02060183  RH  086%=      5-min Rain = 0
KQU1 251301Z 31004KT 21/18 A3001 RMK A01 T02070183  RH  086%=      5-min Rain = 0
KQU1 251302Z 32004KT 21/18 A3001 RMK A01 T02080183  RH  085%=      5-min Rain = 0
KQU1 251303Z 31004KT 21/18 A3001 RMK A01 T02090180  RH  084%=      5-min Rain = 0
KQU1 251304Z 31004KT 21/18 A30 RMK A01 T02090179  RH  083%=      5-min Rain = 0
KQU1 251305Z 31003KT 21/18 A30 RMK A01 T02100179  RH  083%=      5-min Rain = 0
KQU1 251306Z 32003KT 21/18 A30 RMK A01 T02110180  RH  083%=      5-min Rain = 0
KQU1 251307Z 33003KT 21/18 A30 RMK A01 T02110178  RH  081%=      5-min Rain = 0
KQU1 251308Z 33002KT 21/18 A30 RMK A01 T02120177  RH  081%=      5-min Rain = 0
KQU1 251309Z 32003KT 21/18 A3001 RMK A01 T02120178  RH  081%=      5-min Rain = 0
KQU1 251310Z 32003KT 21/18 A3001 RMK A01 T02130177  RH  080%=      5-min Rain = 0
KQU1 251311Z 31003KT 21/18 A3001 RMK A01 T02140178  RH  080%=      5-min Rain = 0
KQU1 251312Z 31002KT 22/18 A3001 RMK A01 T02150180  RH  080%=      5-min Rain = 0
KQU1 251313Z 33003KT 22/18 A3001 RMK A01 T02160179  RH  080%=      5-min Rain = 0
KQU1 251314Z 31002KT 22/18 A3001 RMK A01 T02170178  RH  079%=      5-min Rain = 0
KQU1 251315Z 29002KT 22/18 A3001 RMK A01 T02180177  RH  078%=      5-min Rain = 0
KQU1 251316Z 30003KT 22/18 A3001 RMK A01 T02190176  RH  076%=      5-min Rain = 0
KQU1 251317Z 33003KT 22/17 A3001 RMK A01 T02190173  RH  075%=      5-min Rain = 0
KQU1 251318Z 32003KT 22/17 A3001 RMK A01 T02190171  RH  074%=      5-min Rain = 0
KQU1 251319Z 33003KT 22/17 A3001 RMK A01 T02190170  RH  074%=      5-min Rain = 0
KQU1 251320Z 33003KT 22/17 A3001 RMK A01 T02200173  RH  075%=      5-min Rain = 0
KQU1 251321Z 32004KT 22/17 A3001 RMK A01 T02210168  RH  072%=      5-min Rain = 0
KQU1 251322Z 32003KT 22/17 A3001 RMK A01 T02210168  RH  072%=      5-min Rain = 0
KQU1 251323Z 33004KT 22/17 A3001 RMK A01 T02210167  RH  071%=      5-min Rain = 0
KQU1 251324Z 32003KT 22/17 A3001 RMK A01 T02220166  RH  071%=      5-min Rain = 0
KQU1 251325Z 32002KT 22/17 A3001 RMK A01 T02220165  RH  070%=      5-min Rain = 0
KQU1 251326Z 31002KT 22/17 A3001 RMK A01 T02230167  RH  071%=      5-min Rain = 0
KQU1 251327Z 30002KT 22/16 A3001 RMK A01 T02230162  RH  068%=      5-min Rain = 0
KQU1 251328Z 31002KT 22/16 A3001 RMK A01 T02240163  RH  068%=      5-min Rain = 0
KQU1 251329Z 33002KT 23/16 A3001 RMK A01 T02250161  RH  067%=      5-min Rain = 0
KQU1 251330Z 30001KT 23/16 A3001 RMK A01 T02260162  RH  067%=      5-min Rain = 0
KQU1 251331Z 28002KT 23/16 A3001 RMK A01 T02270161  RH  066%=      5-min Rain = 0
KQU1 251332Z 27002KT 23/16 A3001 RMK A01 T02270158  RH  065%=      5-min Rain = 0
KQU1 251333Z 26001KT 23/16 A3001 RMK A01 T02280160  RH  065%=      5-min Rain = 0
KQU1 251334Z 26003KT 23/16 A3001 RMK A01 T02280156  RH  064%=      5-min Rain = 0
KQU1 251335Z 26003KT 23/16 A3001 RMK A01 T02280157  RH  064%=      5-min Rain = 0
KQU1 251336Z 24004KT 23/16 A3001 RMK A01 T02290155  RH  063%=      5-min Rain = 0
KQU1 251337Z 25004G9KT 23/15 A3001 RMK A01 T02300152  RH  061%=      5-min Rain = 0
KQU1 251338Z 25007KT 23/15 A3001 RMK A01 T02300151  RH  061%=      5-min Rain = 0
KQU1 251339Z 25006KT 23/15 A3001 RMK A01 T02300150  RH  061%=      5-min Rain = 0
KQU1 251340Z 25005KT 23/15 A3001 RMK A01 T02300150  RH  061%=      5-min Rain = 0
KQU1 251341Z 26004KT 23/15 A3001 RMK A01 T02310153  RH  061%=      5-min Rain = 0
KQU1 251342Z 28004KT 23/15 A3001 RMK A01 T02310153  RH  061%=      5-min Rain = 0
KQU1 251343Z 27004KT 23/15 A3001 RMK A01 T02320152  RH  061%=      5-min Rain = 0
KQU1 251344Z 27004KT 23/15 A3001 RMK A01 T02320152  RH  061%=      5-min Rain = 0
KQU1 251345Z 25004KT 23/15 A3002 RMK A01 T02330152  RH  060%=      5-min Rain = 0
KQU1 251346Z 27004KT 23/15 A3001 RMK A01 T02330152  RH  060%=      5-min Rain = 0
KQU1 251347Z 29005KT 23/15 A3001 RMK A01 T02340152  RH  060%=      5-min Rain = 0
KQU1 251348Z 28005KT 23/15 A3001 RMK A01 T02340150  RH  059%=      5-min Rain = 0
KQU1 251349Z 26007KT 23/15 A3002 RMK A01 T02340151  RH  060%=      5-min Rain = 0
KQU1 251350Z 27005KT 24/15 A3002 RMK A01 T02350153  RH  060%=      5-min Rain = 0
KQU1 251351Z 27005KT 24/15 A3002 RMK A01 T02360151  RH  059%=      5-min Rain = 0
KQU1 251352Z 28006KT 24/15 A3002 RMK A01 T02370152  RH  059%=      5-min Rain = 0
KQU1 251353Z 25005KT 24/15 A3002 RMK A01 T02370150  RH  058%=      5-min Rain = 0
KQU1 251354Z 24007KT 24/15 A3002 RMK A01 T02370148  RH  057%=      5-min Rain = 0
KQU1 251355Z 24007KT 24/15 A3002 RMK A01 T02380150  RH  058%=      5-min Rain = 0
KQU1 251356Z 25007KT 24/15 A3002 RMK A01 T02380148  RH  057%=      5-min Rain = 0
KQU1 251357Z 25007KT 24/15 A3002 RMK A01 T02380148  RH  057%=      5-min Rain = 0
KQU1 251358Z 26007KT 24/15 A3002 RMK A01 T02390148  RH  057%=      5-min Rain = 0
KQU1 251359Z 26005KT 24/15 A3002 RMK A01 T02380147  RH  056%=      5-min Rain = 0
KQU1 251400Z 26005KT 24/15 A3002 RMK A01 T02380146  RH  056%=      5-min Rain = 0
KQU1 251401Z 26005KT 24/15 A3002 RMK A01 T02390148  RH  057%=      5-min Rain = 0
KQU1 251402Z 25005KT 24/15 A3002 RMK A01 T02390147  RH  056%=      5-min Rain = 0
KQU1 251403Z 21005KT 24/15 A3002 RMK A01 T02400153  RH  058%=      5-min Rain = 0
KQU1 251404Z 22007KT 24/15 A3002 RMK A01 T02410149  RH  056%=      5-min Rain = 0
KQU1 251405Z 22008KT 24/15 A3002 RMK A01 T02420150  RH  056%=      5-min Rain = 0
KQU1 251406Z 23007KT 24/15 A3002 RMK A01 T02410147  RH  056%=      5-min Rain = 0
KQU1 251407Z 24006KT 24/15 A3002 RMK A01 T02420151  RH  057%=      5-min Rain = 0
KQU1 251408Z 24004KT 24/15 A3002 RMK A01 T02410146  RH  055%=      5-min Rain = 0
KQU1 251409Z 25005KT 24/15 A3002 RMK A01 T02420151  RH  057%=      5-min Rain = 0
KQU1 251410Z 26005KT 24/15 A3002 RMK A01 T02420149  RH  056%=      5-min Rain = 0
KQU1 251411Z 25008KT 24/15 A3002 RMK A01 T02430150  RH  056%=      5-min Rain = 0
KQU1 251412Z 26009KT 24/14 A3002 RMK A01 T02430144  RH  054%=      5-min Rain = 0
KQU1 251413Z 24008KT 24/15 A3002 RMK A01 T02430147  RH  055%=      5-min Rain = 0
KQU1 251414Z 23008KT 24/15 A3002 RMK A01 T02430147  RH  055%=      5-min Rain = 0
KQU1 251415Z 24009KT 24/15 A3002 RMK A01 T02440145  RH  054%=      5-min Rain = 0
KQU1 251416Z 23011KT 24/14 A3002 RMK A01 T02440143  RH  054%=      5-min Rain = 0
KQU1 251417Z 25008KT 24/15 A3002 RMK A01 T02440145  RH  054%=      5-min Rain = 0
KQU1 251418Z 25008KT 24/15 A3002 RMK A01 T02440146  RH  054%=      5-min Rain = 0
KQU1 251419Z 24008KT 25/15 A3002 RMK A01 T02450145  RH  054%=      5-min Rain = 0
KQU1 251420Z 25007KT 25/15 A3002 RMK A01 T02450146  RH  054%=      5-min Rain = 0
KQU1 251421Z 24010KT 25/14 A3002 RMK A01 T02460144  RH  053%=      5-min Rain = 0
KQU1 251422Z 25010KT 25/15 A3002 RMK A01 T02460145  RH  053%=      5-min Rain = 0
KQU1 251423Z 26008KT 25/15 A3002 RMK A01 T02470145  RH  053%=      5-min Rain = 0
KQU1 251424Z 25008KT 25/14 A3002 RMK A01 T02470144  RH  052%=      5-min Rain = 0
KQU1 251425Z 23006KT 25/15 A3002 RMK A01 T02470146  RH  053%=      5-min Rain = 0
KQU1 251426Z 25006KT 25/15 A3002 RMK A01 T02480146  RH  053%=      5-min Rain = 0
KQU1 251427Z 24005KT 25/15 A3002 RMK A01 T02490147  RH  053%=      5-min Rain = 0
KQU1 251428Z 24004KT 25/14 A3002 RMK A01 T02490143  RH  052%=      5-min Rain = 0
KQU1 251429Z 23007KT 25/15 A3002 RMK A01 T02490147  RH  053%=      5-min Rain = 0
KQU1 251430Z 24008KT 25/15 A3002 RMK A01 T02500146  RH  053%=      5-min Rain = 0
KQU1 251431Z 25006KT 25/14 A3002 RMK A01 T02500144  RH  052%=      5-min Rain = 0
KQU1 251432Z 24005KT 25/15 A3002 RMK A01 T02500147  RH  053%=      5-min Rain = 0
KQU1 251433Z 24005KT 25/14 A3002 RMK A01 T02500142  RH  051%=      5-min Rain = 0
KQU1 251434Z 22003KT 25/15 A3002 RMK A01 T02500148  RH  053%=      5-min Rain = 0
KQU1 251435Z 24003KT 25/15 A3002 RMK A01 T02520151  RH  053%=      5-min Rain = 0
KQU1 251436Z 23005KT 25/15 A3002 RMK A01 T02540150  RH  053%=      5-min Rain = 0
KQU1 251437Z 24005KT 26/15 A3002 RMK A01 T02550150  RH  052%=      5-min Rain = 0
KQU1 251438Z 22006G11KT 26/15 A3002 RMK A01 T02560150  RH  052%=      5-min Rain = 0
KQU1 251439Z 23007KT 26/15 A3002 RMK A01 T02560148  RH  051%=      5-min Rain = 0
KQU1 251440Z 23008KT 26/15 A3002 RMK A01 T02560149  RH  052%=      5-min Rain = 0
KQU1 251441Z 19008KT 26/15 A3002 RMK A01 T02570149  RH  051%=      5-min Rain = 0
KQU1 251442Z 21007KT 26/15 A3002 RMK A01 T02570150  RH  052%=      5-min Rain = 0
KQU1 251443Z 21007KT 26/15 A3002 RMK A01 T02580150  RH  051%=      5-min Rain = 0
KQU1 251444Z 22010KT 26/15 A3002 RMK A01 T02570146  RH  050%=      5-min Rain = 0
KQU1 251445Z 22008KT 26/15 A3002 RMK A01 T02570146  RH  050%=      5-min Rain = 0
KQU1 251446Z 19009KT 26/15 A3002 RMK A01 T02560150  RH  052%=      5-min Rain = 0
KQU1 251447Z 21009KT 26/15 A3002 RMK A01 T02570147  RH  051%=      5-min Rain = 0
KQU1 251448Z 21007KT 26/15 A3002 RMK A01 T02560146  RH  051%=      5-min Rain = 0
KQU1 251449Z 21008KT 26/15 A3002 RMK A01 T02560148  RH  051%=      5-min Rain = 0
KQU1 251450Z 21007KT 26/15 A3003 RMK A01 T02560146  RH  050%=      5-min Rain = 0
KQU1 251451Z 20007KT 26/15 A3003 RMK A01 T02570146  RH  050%=      5-min Rain = 0
KQU1 251452Z 18006KT 26/15 A3003 RMK A01 T02560147  RH  051%=      5-min Rain = 0
KQU1 251453Z 19010KT 26/15 A3003 RMK A01 T02570150  RH  051%=      5-min Rain = 0
KQU1 251454Z 19011KT 26/15 A3003 RMK A01 T02580148  RH  050%=      5-min Rain = 0
KQU1 251455Z 19011KT 26/15 A3003 RMK A01 T02580147  RH  050%=      5-min Rain = 0
KQU1 251456Z 19010KT 26/15 A3003 RMK A01 T02580146  RH  050%=      5-min Rain = 0
KQU1 251457Z 20008KT 26/15 A3003 RMK A01 T02570146  RH  050%=      5-min Rain = 0
KQU1 251458Z 20008KT 26/15 A3003 RMK A01 T02570146  RH  050%=      5-min Rain = 0
KQU1 251459Z 20008KT 26/15 A3003 RMK A01 T02580149  RH  051%=      5-min Rain = 0
KQU1 251500Z 21012KT 26/15 A3003 RMK A01 T02590148  RH  051%=      5-min Rain = 0
KQU1 251501Z 21010KT 26/15 A3003 RMK A01 T02590149  RH  051%=      5-min Rain = 0
KQU1 251502Z 21009KT 26/15 A3003 RMK A01 T02590148  RH  050%=      5-min Rain = 0
KQU1 251503Z 18007KT 26/15 A3003 RMK A01 T02590150  RH  051%=      5-min Rain = 0
KQU1 251504Z 19006KT 26/15 A3003 RMK A01 T02590149  RH  051%=      5-min Rain = 0
KQU1 251505Z 18008KT 26/15 A3003 RMK A01 T02590152  RH  052%=      5-min Rain = 0
KQU1 251506Z 20007KT 26/15 A3003 RMK A01 T02600147  RH  050%=      5-min Rain = 0
KQU1 251507Z 18006KT 26/15 A3003 RMK A01 T02590147  RH  050%=      5-min Rain = 0
KQU1 251508Z 19007KT 26/15 A3003 RMK A01 T02590149  RH  051%=      5-min Rain = 0
KQU1 251509Z 19010KT 26/15 A3003 RMK A01 T02600150  RH  051%=      5-min Rain = 0
KQU1 251510Z 20010KT 26/15 A3003 RMK A01 T02600150  RH  051%=      5-min Rain = 0
KQU1 251511Z 20011KT 26/15 A3003 RMK A01 T02610149  RH  050%=      5-min Rain = 0
KQU1 251512Z 20010KT 26/15 A3003 RMK A01 T02620149  RH  050%=      5-min Rain = 0
KQU1 251513Z 20010KT 26/15 A3003 RMK A01 T02610148  RH  050%=      5-min Rain = 0
KQU1 251514Z 20011KT 26/15 A3003 RMK A01 T02620151  RH  050%=      5-min Rain = 0
KQU1 251515Z 19011KT 26/15 A3003 RMK A01 T02630150  RH  050%=      5-min Rain = 0
KQU1 251516Z 20011KT 26/15 A3003 RMK A01 T02620150  RH  050%=      5-min Rain = 0
KQU1 251517Z 19008KT 26/15 A3003 RMK A01 T02640154  RH  051%=      5-min Rain = 0
KQU1 251518Z 19009KT 26/15 A3002 RMK A01 T02640147  RH  049%=      5-min Rain = 0
KQU1 251519Z 19010KT 26/15 A3002 RMK A01 T02630150  RH  050%=      5-min Rain = 0
KQU1 251520Z 19009KT 26/15 A3002 RMK A01 T02640151  RH  050%=      5-min Rain = 0
KQU1 251521Z 19006KT 27/15 A3002 RMK A01 T02650153  RH  050%=      5-min Rain = 0
KQU1 251522Z 22010KT 27/15 A3002 RMK A01 T02650152  RH  050%=      5-min Rain = 0
KQU1 251523Z 22010KT 27/15 A3002 RMK A01 T02650152  RH  050%=      5-min Rain = 0
KQU1 251524Z 21010KT 27/15 A3002 RMK A01 T02660151  RH  049%=      5-min Rain = 0
KQU1 251525Z 23010KT 27/15 A3002 RMK A01 T02660152  RH  050%=      5-min Rain = 0
KQU1 251526Z 21008KT 27/15 A3002 RMK A01 T02660154  RH  050%=      5-min Rain = 0
KQU1 251527Z 20012KT 27/16 A3002 RMK A01 T02680155  RH  050%=      5-min Rain = 0
KQU1 251528Z 21014KT 27/15 A3002 RMK A01 T02680151  RH  049%=      5-min Rain = 0
KQU1 251529Z 20013KT 27/15 A3002 RMK A01 T02670148  RH  048%=      5-min Rain = 0
KQU1 251530Z 20013KT 27/15 A3001 RMK A01 T02660152  RH  050%=      5-min Rain = 0
KQU1 251531Z 21013KT 27/15 A3001 RMK A01 T02670153  RH  049%=      5-min Rain = 0
KQU1 251532Z 22011KT 27/15 A3001 RMK A01 T02680154  RH  050%=      5-min Rain = 0
KQU1 251533Z 22013KT 27/16 A3001 RMK A01 T02690155  RH  050%=      5-min Rain = 0
KQU1 251534Z 22009KT 27/16 A3001 RMK A01 T02700156  RH  050%=      5-min Rain = 0
KQU1 251535Z 23010KT 27/16 A3001 RMK A01 T02720158  RH  050%=      5-min Rain = 0
KQU1 251536Z 23012KT 27/15 A3001 RMK A01 T02720154  RH  048%=      5-min Rain = 0
KQU1 251537Z 23013KT 27/16 A3001 RMK A01 T02720155  RH  049%=      5-min Rain = 0
KQU1 251538Z 22010KT 27/16 A3001 RMK A01 T02710155  RH  049%=      5-min Rain = 0
KQU1 251539Z 22012KT 27/16 A3001 RMK A01 T02720156  RH  049%=      5-min Rain = 0
KQU1 251540Z 23010KT 27/16 A3001 RMK A01 T02730157  RH  049%=      5-min Rain = 0
KQU1 251541Z 22009KT 28/16 A3001 RMK A01 T02750160  RH  049%=      5-min Rain = 0
KQU1 251542Z 21012KT 28/15 A3001 RMK A01 T02750152  RH  047%=      5-min Rain = 0
KQU1 251543Z 22010KT 28/16 A3001 RMK A01 T02750158  RH  049%=      5-min Rain = 0
KQU1 251544Z 22011KT 28/15 A3001 RMK A01 T02750154  RH  047%=      5-min Rain = 0
KQU1 251545Z 23010KT 27/15 A3001 RMK A01 T02740154  RH  048%=      5-min Rain = 0
KQU1 251546Z 23008KT 27/16 A3001 RMK A01 T02740155  RH  048%=      5-min Rain = 0
KQU1 251547Z 24011KT 28/15 A3001 RMK A01 T02750154  RH  048%=      5-min Rain = 0
KQU1 251548Z 24011KT 28/16 A3001 RMK A01 T02750156  RH  048%=      5-min Rain = 0
KQU1 251549Z 22011KT 28/15 A3001 RMK A01 T02750154  RH  048%=      5-min Rain = 0
KQU1 251550Z 22010KT 27/15 A3001 RMK A01 T02740150  RH  047%=      5-min Rain = 0
KQU1 251551Z 21009KT 27/15 A3001 RMK A01 T02730153  RH  048%=      5-min Rain = 0
KQU1 251552Z 21008KT 27/15 A3001 RMK A01 T02730152  RH  048%=      5-min Rain = 0
KQU1 251553Z 21012KT 27/16 A3001 RMK A01 T02740156  RH  048%=      5-min Rain = 0
KQU1 251554Z 21008KT 27/15 A3001 RMK A01 T02740151  RH  047%=      5-min Rain = 0
KQU1 251555Z 20008KT 27/15 A3001 RMK A01 T02730152  RH  048%=      5-min Rain = 0
KQU1 251556Z 19008KT 27/16 A3001 RMK A01 T02740156  RH  048%=      5-min Rain = 0
KQU1 251557Z 19007KT 28/16 A3001 RMK A01 T02760157  RH  048%=      5-min Rain = 0
KQU1 251558Z 20007KT 28/16 A3001 RMK A01 T02780163  RH  049%=      5-min Rain = 0
KQU1 251559Z 24010KT 28/16 A3001 RMK A01 T02810161  RH  048%=      5-min Rain = 0
KQU1 251600Z 25008KT 28/15 A3001 RMK A01 T02800153  RH  046%=      5-min Rain = 0
KQU1 251601Z 21009KT 28/16 A3001 RMK A01 T02790155  RH  047%=      5-min Rain = 0
KQU1 251602Z 20010KT 28/16 A3001 RMK A01 T02780155  RH  047%=      5-min Rain = 0
KQU1 251603Z 20010KT 28/16 A3001 RMK A01 T02780156  RH  047%=      5-min Rain = 0
KQU1 251604Z 21011KT 28/16 A3001 RMK A01 T02790157  RH  047%=      5-min Rain = 0
KQU1 251605Z 23010KT 28/16 A3001 RMK A01 T02790157  RH  047%=      5-min Rain = 0
KQU1 251606Z 24007KT 28/15 A3001 RMK A01 T02790154  RH  046%=      5-min Rain = 0
KQU1 251607Z 23007KT 28/16 A3001 RMK A01 T02800156  RH  047%=      5-min Rain = 0
KQU1 251608Z 23008KT 28/15 A3001 RMK A01 T02790152  RH  046%=      5-min Rain = 0
KQU1 251609Z 22006KT 28/16 A3001 RMK A01 T02790159  RH  048%=      5-min Rain = 0
KQU1 251610Z 19008KT 28/16 A3001 RMK A01 T02820160  RH  048%=      5-min Rain = 0
KQU1 251611Z 21010KT 28/16 A3001 RMK A01 T02840159  RH  046%=      5-min Rain = 0
KQU1 251612Z 21010KT 28/16 A3001 RMK A01 T02840156  RH  046%=      5-min Rain = 0
KQU1 251613Z 20011KT 28/15 A3001 RMK A01 T02840154  RH  045%=      5-min Rain = 0
KQU1 251614Z 21009KT 28/16 A3001 RMK A01 T02830155  RH  046%=      5-min Rain = 0
KQU1 251615Z 22010KT 28/16 A3001 RMK A01 T02820159  RH  047%=      5-min Rain = 0
KQU1 251616Z 21012KT 28/16 A3001 RMK A01 T02830156  RH  046%=      5-min Rain = 0
KQU1 251617Z 22012KT 28/15 A3001 RMK A01 T02830154  RH  045%=      5-min Rain = 0
KQU1 251618Z 23012KT 28/16 A3001 RMK A01 T02830156  RH  046%=      5-min Rain = 0
KQU1 251619Z 22010KT 28/15 A3001 RMK A01 T02830153  RH  045%=      5-min Rain = 0
KQU1 251620Z 22011KT 28/16 A3001 RMK A01 T02830156  RH  046%=      5-min Rain = 0
KQU1 251621Z 22010KT 28/16 A3001 RMK A01 T02840157  RH  046%=      5-min Rain = 0
KQU1 251622Z 22007KT 29/15 A3001 RMK A01 T02850154  RH  045%=      5-min Rain = 0
KQU1 251623Z 22010KT 29/16 A3001 RMK A01 T02850155  RH  045%=      5-min Rain = 0
KQU1 251624Z 22011KT 29/16 A3001 RMK A01 T02860157  RH  046%=      5-min Rain = 0
KQU1 251625Z 22013KT 29/15 A3001 RMK A01 T02860154  RH  044%=      5-min Rain = 0
KQU1 251626Z 23014KT 29/16 A3001 RMK A01 T02860156  RH  045%=      5-min Rain = 0
KQU1 251627Z 22012KT 29/16 A3001 RMK A01 T02870156  RH  045%=      5-min Rain = 0
KQU1 251628Z 22009KT 29/15 A3001 RMK A01 T02860152  RH  044%=      5-min Rain = 0
KQU1 251629Z 21010KT 29/15 A3001 RMK A01 T02860153  RH  044%=      5-min Rain = 0
KQU1 251630Z 23010KT 29/16 A3001 RMK A01 T02860156  RH  045%=      5-min Rain = 0
KQU1 251631Z 24011KT 29/16 A3001 RMK A01 T02870158  RH  045%=      5-min Rain = 0
KQU1 251632Z 24010KT 29/16 A3001 RMK A01 T02880158  RH  045%=      5-min Rain = 0
KQU1 251633Z 24011KT 29/16 A3001 RMK A01 T02900156  RH  044%=      5-min Rain = 0
KQU1 251634Z 24011KT 29/15 A3001 RMK A01 T02900153  RH  043%=      5-min Rain = 0
KQU1 251635Z 24009KT 29/16 A3001 RMK A01 T02900156  RH  044%=      5-min Rain = 0
KQU1 251636Z 24008KT 29/16 A3001 RMK A01 T02910155  RH  044%=      5-min Rain = 0
KQU1 251637Z 25007KT 29/16 A3001 RMK A01 T02910156  RH  044%=      5-min Rain = 0
KQU1 251638Z 25008KT 29/15 A3001 RMK A01 T02900154  RH  044%=      5-min Rain = 0
KQU1 251639Z 24007KT 29/15 A3001 RMK A01 T02900153  RH  044%=      5-min Rain = 0
KQU1 251640Z 26004KT 29/15 A3001 RMK A01 T02890151  RH  043%=      5-min Rain = 0
KQU1 251641Z 21008KT 29/16 A3001 RMK A01 T02900155  RH  044%=      5-min Rain = 0
KQU1 251642Z 21008KT 29/16 A3001 RMK A01 T02910155  RH  044%=      5-min Rain = 0
KQU1 251643Z 21007KT 29/15 A3001 RMK A01 T02910151  RH  042%=      5-min Rain = 0
KQU1 251644Z 19011KT 29/15 A3001 RMK A01 T02910151  RH  042%=      5-min Rain = 0
KQU1 251645Z 20008KT 29/15 A3001 RMK A01 T02910153  RH  043%=      5-min Rain = 0
KQU1 251646Z 20007KT 29/15 A3001 RMK A01 T02910153  RH  043%=      5-min Rain = 0
KQU1 251647Z 20008KT 29/16 A3001 RMK A01 T02920158  RH  044%=      5-min Rain = 0
KQU1 251648Z 20007KT 29/16 A3001 RMK A01 T02940156  RH  043%=      5-min Rain = 0
KQU1 251649Z 20009KT 30/15 A3001 RMK A01 T02950153  RH  042%=      5-min Rain = 0
KQU1 251650Z 21009KT 30/16 A3001 RMK A01 T02960156  RH  043%=      5-min Rain = 0
KQU1 251651Z 22008KT 30/15 A3001 RMK A01 T02950152  RH  042%=      5-min Rain = 0
KQU1 251652Z 24007KT 29/15 A3001 RMK A01 T02940154  RH  043%=      5-min Rain = 0
KQU1 251653Z 23006KT 30/15 A3001 RMK A01 T02950152  RH  042%=      5-min Rain = 0
KQU1 251654Z 23006KT 29/15 A3001 RMK A01 T02940154  RH  043%=      5-min Rain = 0
KQU1 251655Z 22010KT 30/16 A3001 RMK A01 T02960158  RH  043%=      5-min Rain = 0
KQU1 251656Z 22006KT 30/16 A3001 RMK A01 T02980158  RH  043%=      5-min Rain = 0
KQU1 251657Z 23007KT 30/16 A3001 RMK A01 T03000161  RH  043%=      5-min Rain = 0
KQU1 251658Z 24007KT 30/16 A3001 RMK A01 T03020161  RH  043%=      5-min Rain = 0
KQU1 251659Z 21007KT 30/16 A3001 RMK A01 T03040159  RH  042%=      5-min Rain = 0
KQU1 251700Z 23006KT 31/16 A3001 RMK A01 T03050162  RH  042%=      5-min Rain = 0
KQU1 251701Z 22010KT 31/15 A3001 RMK A01 T03050151  RH  039%=      5-min Rain = 0
KQU1 251702Z 19008KT 30/16 A3001 RMK A01 T03040155  RH  041%=      5-min Rain = 0
KQU1 251703Z 19009KT 31/16 A3001 RMK A01 T03050156  RH  040%=      5-min Rain = 0
KQU1 251704Z 20010KT 31/15 A3001 RMK A01 T03050150  RH  039%=      5-min Rain = 0
KQU1 251705Z 20010KT 30/15 A3001 RMK A01 T03040151  RH  039%=      5-min Rain = 0
KQU1 251706Z 21010KT 30/15 A3001 RMK A01 T03040152  RH  040%=      5-min Rain = 0
KQU1 251707Z 21010KT 30/15 A3001 RMK A01 T03040149  RH  039%=      5-min Rain = 0
KQU1 251708Z 21006KT 30/15 A3001 RMK A01 T03030152  RH  040%=      5-min Rain = 0
KQU1 251709Z 20008KT 30/15 A3001 RMK A01 T03040154  RH  040%=      5-min Rain = 0
KQU1 251710Z 19004KT 31/15 A3001 RMK A01 T03050146  RH  038%=      5-min Rain = 0
KQU1 251711Z 22003KT 31/15 A3001 RMK A01 T03050149  RH  039%=      5-min Rain = 0
KQU1 251712Z 22006KT 31/16 A3001 RMK A01 T03060155  RH  040%=      5-min Rain = 0
KQU1 251713Z 19007KT 31/16 A3001 RMK A01 T03070159  RH  041%=      5-min Rain = 0
KQU1 251714Z 20006KT 31/16 A3001 RMK A01 T03090159  RH  040%=      5-min Rain = 0
KQU1 251715Z 18008KT 31/15 A3001 RMK A01 T03100150  RH  038%=      5-min Rain = 0
KQU1 251716Z 17006KT 31/16 A3001 RMK A01 T03100157  RH  040%=      5-min Rain = 0
KQU1 251717Z 17005KT 31/16 A3001 RMK A01 T03100159  RH  040%=      5-min Rain = 0
KQU1 251718Z 21006KT 31/16 A3001 RMK A01 T03110157  RH  040%=      5-min Rain = 0
KQU1 251719Z 18007KT 31/15 A3001 RMK A01 T03110154  RH  039%=      5-min Rain = 0
KQU1 251720Z 20006KT 31/15 A3001 RMK A01 T03100153  RH  039%=      5-min Rain = 0
KQU1 251721Z 16007KT 31/16 A3001 RMK A01 T03110160  RH  040%=      5-min Rain = 0
KQU1 251722Z 15010KT 31/16 A3001 RMK A01 T03100161  RH  041%=      5-min Rain = 0
KQU1 251723Z 14009KT 31/16 A3001 RMK A01 T03100161  RH  041%=      5-min Rain = 0
KQU1 251724Z 14010KT 31/16 A3001 RMK A01 T03100163  RH  041%=      5-min Rain = 0
KQU1 251725Z 14006KT 31/16 A3001 RMK A01 T03100160  RH  041%=      5-min Rain = 0
KQU1 251726Z 13006KT 31/16 A3001 RMK A01 T03100160  RH  041%=      5-min Rain = 0
KQU1 251727Z 14005KT 31/16 A3001 RMK A01 T03090157  RH  040%=      5-min Rain = 0
KQU1 251728Z 12004KT 31/16 A3001 RMK A01 T03080157  RH  040%=      5-min Rain = 0
KQU1 251729Z 10002KT 31/16 A3001 RMK A01 T03090161  RH  041%=      5-min Rain = 0
KQU1 251730Z 14004KT 31/16 A3001 RMK A01 T03100162  RH  041%=      5-min Rain = 0
KQU1 251731Z 17007KT 31/16 A3001 RMK A01 T03110163  RH  041%=      5-min Rain = 0
KQU1 251732Z 20006KT 31/16 A3001 RMK A01 T03100155  RH  039%=      5-min Rain = 0
KQU1 251733Z 21003KT 31/15 A3001 RMK A01 T03100154  RH  039%=      5-min Rain = 0
KQU1 251734Z 21002KT 31/15 A3001 RMK A01 T03100151  RH  038%=      5-min Rain = 0
KQU1 251735Z 14002KT 31/16 A3001 RMK A01 T03110155  RH  039%=      5-min Rain = 0
KQU1 251736Z 14008KT 31/16 A3001 RMK A01 T03120161  RH  040%=      5-min Rain = 0
KQU1 251737Z 13009KT 31/16 A3001 RMK A01 T03130159  RH  039%=      5-min Rain = 0
KQU1 251738Z 15008KT 31/17 A3001 RMK A01 T03140166  RH  041%=      5-min Rain = 0
KQU1 251739Z 18006KT 31/15 A3001 RMK A01 T03140152  RH  038%=      5-min Rain = 0
KQU1 251740Z 16007KT 31/16 A3001 RMK A01 T03130160  RH  040%=      5-min Rain = 0
KQU1 251741Z 14007KT 31/17 A3001 RMK A01 T03130165  RH  041%=      5-min Rain = 0
KQU1 251742Z 15007KT 32/16 A30 RMK A01 T03150162  RH  040%=      5-min Rain = 0
KQU1 251743Z 15007KT 32/16 A30 RMK A01 T03150159  RH  039%=      5-min Rain = 0
KQU1 251744Z 16006KT 31/16 A30 RMK A01 T03140158  RH  039%=      5-min Rain = 0
KQU1 251745Z 16007KT 31/16 A30 RMK A01 T03140158  RH  039%=      5-min Rain = 0
KQU1 251746Z 15010KT 31/15 A30 RMK A01 T03140154  RH  038%=      5-min Rain = 0
KQU1 251747Z 15008KT 31/15 A30 RMK A01 T03140154  RH  038%=      5-min Rain = 0
KQU1 251748Z 15009KT 31/16 A30 RMK A01 T03140161  RH  040%=      5-min Rain = 0
KQU1 251749Z 15009KT 32/16 A30 RMK A01 T03150161  RH  040%=      5-min Rain = 0
KQU1 251750Z 14008KT 32/16 A30 RMK A01 T03150157  RH  039%=      5-min Rain = 0
KQU1 251751Z 16009KT 32/16 A30 RMK A01 T03150159  RH  039%=      5-min Rain = 0
KQU1 251752Z 16006KT 32/15 A30 RMK A01 T03150153  RH  038%=      5-min Rain = 0
KQU1 251753Z 15006KT 32/16 A30 RMK A01 T03150159  RH  039%=      5-min Rain = 0
KQU1 251754Z 13007KT 32/16 A30 RMK A01 T03150157  RH  038%=      5-min Rain = 0
KQU1 251755Z 15006KT 32/17 A30 RMK A01 T03160166  RH  040%=      5-min Rain = 0
KQU1 251756Z 19008KT 32/15 A30 RMK A01 T03180153  RH  037%=      5-min Rain = 0
KQU1 251757Z 20007KT 32/15 A30 RMK A01 T03170148  RH  036%=      5-min Rain = 0
KQU1 251758Z 20007KT 32/16 A30 RMK A01 T03180155  RH  037%=      5-min Rain = 0
KQU1 251759Z 20005KT 32/15 A30 RMK A01 T03190153  RH  037%=      5-min Rain = 0
KQU1 251800Z 23004KT 32/15 A30 RMK A01 T03190151  RH  036%=      5-min Rain = 0
KQU1 251801Z 16004KT 32/15 A30 RMK A01 T03190153  RH  037%=      5-min Rain = 0
KQU1 251802Z 18008KT 32/16 A30 RMK A01 T03200160  RH  038%=      5-min Rain = 0
KQU1 251803Z 17008KT 32/16 A30 RMK A01 T03210160  RH  038%=      5-min Rain = 0
KQU1 251804Z 17007KT 32/16 A30 RMK A01 T03210162  RH  038%=      5-min Rain = 0
KQU1 251805Z 18009KT 32/16 A30 RMK A01 T03220162  RH  038%=      5-min Rain = 0
KQU1 251806Z 17006KT 32/15 A30 RMK A01 T03210145  RH  035%=      5-min Rain = 0
KQU1 251807Z 21006KT 32/15 A30 RMK A01 T03200150  RH  036%=      5-min Rain = 0
KQU1 251808Z 22004KT 32/15 A30 RMK A01 T03190153  RH  037%=      5-min Rain = 0
KQU1 251809Z 22003KT 32/15 A30 RMK A01 T03190148  RH  035%=      5-min Rain = 0
KQU1 251810Z 20004KT 32/15 A2999 RMK A01 T03200153  RH  036%=      5-min Rain = 0
KQU1 251811Z 18002KT 32/14 A2999 RMK A01 T03200142  RH  034%=      5-min Rain = 0
KQU1 251812Z 19002KT 32/15 A2999 RMK A01 T03190146  RH  035%=      5-min Rain = 0
KQU1 251813Z 16004KT 32/16 A2999 RMK A01 T03200156  RH  037%=      5-min Rain = 0
KQU1 251814Z 17006KT 32/16 A2999 RMK A01 T03220160  RH  038%=      5-min Rain = 0
KQU1 251815Z 15005KT 32/16 A2999 RMK A01 T03230155  RH  036%=      5-min Rain = 0
KQU1 251816Z 15005KT 32/17 A2999 RMK A01 T03240166  RH  039%=      5-min Rain = 0
KQU1 251817Z 18006KT 33/15 A2999 RMK A01 T03250146  RH  034%=      5-min Rain = 0
KQU1 251818Z 19006KT 32/14 A2999 RMK A01 T03240142  RH  033%=      5-min Rain = 0
KQU1 251819Z 19003KT 32/14 A2999 RMK A01 T03240138  RH  032%=      5-min Rain = 0
KQU1 251820Z 22004KT 32/14 A2999 RMK A01 T03240140  RH  033%=      5-min Rain = 0
KQU1 251821Z 26002KT 32/14 A2999 RMK A01 T03230137  RH  032%=      5-min Rain = 0
KQU1 251822Z 21002KT 32/14 A2999 RMK A01 T03230141  RH  033%=      5-min Rain = 0
KQU1 251823Z 21002KT 32/14 A2999 RMK A01 T03240144  RH  034%=      5-min Rain = 0
KQU1 251824Z 14006KT 33/15 A2999 RMK A01 T03260149  RH  035%=      5-min Rain = 0
KQU1 251825Z 14006KT 33/17 A2999 RMK A01 T03270165  RH  038%=      5-min Rain = 0
KQU1 251826Z 13006KT 33/16 A2999 RMK A01 T03290163  RH  037%=      5-min Rain = 0
KQU1 251827Z 15010KT 33/16 A2999 RMK A01 T03280157  RH  036%=      5-min Rain = 0
KQU1 251828Z 15008KT 33/16 A2999 RMK A01 T03270160  RH  037%=      5-min Rain = 0
KQU1 251829Z 16006KT 33/16 A2999 RMK A01 T03260158  RH  037%=      5-min Rain = 0
KQU1 251830Z 15006KT 33/16 A2999 RMK A01 T03250157  RH  037%=      5-min Rain = 0
KQU1 251831Z 14003KT 32/15 A2999 RMK A01 T03240152  RH  035%=      5-min Rain = 0
KQU1 251832Z 14005KT 32/16 A2999 RMK A01 T03240159  RH  037%=      5-min Rain = 0
KQU1 251833Z 12006KT 32/15 A2999 RMK A01 T03240152  RH  036%=      5-min Rain = 0
KQU1 251834Z 12007KT 32/15 A2999 RMK A01 T03240151  RH  035%=      5-min Rain = 0
KQU1 251835Z 13006KT 32/15 A2999 RMK A01 T03240151  RH  035%=      5-min Rain = 0
KQU1 251836Z 12003KT 32/15 A2999 RMK A01 T03230150  RH  035%=      5-min Rain = 0
KQU1 251837Z 14003KT 32/15 A2999 RMK A01 T03230154  RH  036%=      5-min Rain = 0
KQU1 251838Z 14007KT 32/16 A2999 RMK A01 T03240157  RH  037%=      5-min Rain = 0
KQU1 251839Z 14007KT 32/15 A2999 RMK A01 T03240146  RH  034%=      5-min Rain = 0
KQU1 251840Z 14006KT 32/15 A2999 RMK A01 T03230153  RH  036%=      5-min Rain = 0
KQU1 251841Z 14007KT 32/16 A2999 RMK A01 T03240160  RH  037%=      5-min Rain = 0
KQU1 251842Z 15004KT 33/15 A2999 RMK A01 T03250154  RH  036%=      5-min Rain = 0
KQU1 251843Z 19003KT 33/16 A2999 RMK A01 T03270161  RH  037%=      5-min Rain = 0
KQU1 251844Z 18003KT 33/15 A2999 RMK A01 T03290151  RH  034%=      5-min Rain = 0
KQU1 251845Z 17007G12KT 33/16 A2999 RMK A01 T03300157  RH  035%=      5-min Rain = 0
KQU1 251846Z 17008KT 33/15 A2999 RMK A01 T03300151  RH  034%=      5-min Rain = 0
KQU1 251847Z 17005KT 33/15 A2999 RMK A01 T03290149  RH  034%=      5-min Rain = 0
KQU1 251848Z 18006G13KT 33/15 A2999 RMK A01 T03290147  RH  033%=      5-min Rain = 0
KQU1 251849Z 15007G12KT 33/15 A2999 RMK A01 T03290154  RH  035%=      5-min Rain = 0
KQU1 251850Z 18008KT 33/15 A2999 RMK A01 T03290145  RH  033%=      5-min Rain = 0
KQU1 251851Z 19008KT 33/15 A2999 RMK A01 T03290145  RH  033%=      5-min Rain = 0
KQU1 251852Z 17005KT 33/15 A2999 RMK A01 T03310150  RH  034%=      5-min Rain = 0
KQU1 251853Z 13005KT 33/15 A2999 RMK A01 T03330150  RH  033%=      5-min Rain = 0
KQU1 251854Z 14008KT 33/15 A2999 RMK A01 T03340153  RH  034%=      5-min Rain = 0
KQU1 251855Z 17011KT 33/15 A2999 RMK A01 T03340150  RH  033%=      5-min Rain = 0
KQU1 251856Z 17005KT 33/15 A2999 RMK A01 T03340149  RH  033%=      5-min Rain = 0
KQU1 251857Z 17004KT 33/14 A2999 RMK A01 T03330142  RH  032%=      5-min Rain = 0
KQU1 251858Z 17004KT 33/14 A2999 RMK A01 T03320143  RH  032%=      5-min Rain = 0
KQU1 251859Z 15003KT 33/15 A2999 RMK A01 T03320145  RH  032%=      5-min Rain = 0
KQU1 251900Z 14004KT 33/15 A2999 RMK A01 T03320147  RH  033%=      5-min Rain = 0
KQU1 251901Z 11008KT 33/15 A2999 RMK A01 T03320152  RH  034%=      5-min Rain = 0
KQU1 251902Z 11006KT 33/15 A2999 RMK A01 T03310154  RH  035%=      5-min Rain = 0
KQU1 251903Z 12006KT 33/15 A2999 RMK A01 T03310154  RH  035%=      5-min Rain = 0
KQU1 251904Z 13010KT 33/15 A2999 RMK A01 T03310153  RH  034%=      5-min Rain = 0
KQU1 251905Z 15008G13KT 33/15 A2999 RMK A01 T03310147  RH  033%=      5-min Rain = 0
KQU1 251906Z 15010KT 33/15 A2999 RMK A01 T03320153  RH  034%=      5-min Rain = 0
KQU1 251907Z 14010KT 33/14 A2999 RMK A01 T03330140  RH  031%=      5-min Rain = 0
KQU1 251908Z 15008KT 33/14 A2999 RMK A01 T03330142  RH  032%=      5-min Rain = 0
KQU1 251909Z 16007KT 33/15 A2999 RMK A01 T03330146  RH  032%=      5-min Rain = 0
KQU1 251910Z 15008KT 33/15 A2999 RMK A01 T03330146  RH  033%=      5-min Rain = 0
KQU1 251911Z 15007KT 33/15 A2999 RMK A01 T03330148  RH  033%=      5-min Rain = 0
KQU1 251912Z 16006KT 33/15 A2998 RMK A01 T03330148  RH  033%=      5-min Rain = 0
KQU1 251913Z 16012KT 33/14 A2999 RMK A01 T03330138  RH  031%=      5-min Rain = 0
KQU1 251914Z 16010KT 33/13 A2999 RMK A01 T03330132  RH  030%=      5-min Rain = 0
KQU1 251915Z 15007KT 33/14 A2998 RMK A01 T03320135  RH  030%=      5-min Rain = 0
KQU1 251916Z 16008KT 33/14 A2998 RMK A01 T03330141  RH  032%=      5-min Rain = 0
KQU1 251917Z 16007KT 33/14 A2998 RMK A01 T03340139  RH  031%=      5-min Rain = 0
KQU1 251918Z 15005KT 34/13 A2998 RMK A01 T03350134  RH  030%=      5-min Rain = 0
KQU1 251919Z 16013KT 34/13 A2998 RMK A01 T03350133  RH  030%=      5-min Rain = 0
KQU1 251920Z 16011KT 34/13 A2999 RMK A01 T03350129  RH  029%=      5-min Rain = 0
KQU1 251921Z 16009KT 33/12 A2998 RMK A01 T03340123  RH  028%=      5-min Rain = 0
KQU1 251922Z 17010KT 33/13 A2998 RMK A01 T03340134  RH  030%=      5-min Rain = 0
KQU1 251923Z 17009KT 33/14 A2998 RMK A01 T03340138  RH  031%=      5-min Rain = 0
KQU1 251924Z 17004KT 33/13 A2998 RMK A01 T03330128  RH  029%=      5-min Rain = 0
KQU1 251925Z 17008KT 33/14 A2998 RMK A01 T03330136  RH  031%=      5-min Rain = 0
KQU1 251926Z 17011KT 33/12 A2998 RMK A01 T03340124  RH  028%=      5-min Rain = 0
KQU1 251927Z 16008KT 34/12 A2998 RMK A01 T03350117  RH  026%=      5-min Rain = 0
KQU1 251928Z 20010G16KT 34/12 A2998 RMK A01 T03370117  RH  026%=      5-min Rain = 0
KQU1 251929Z 20011KT 34/10 A2998 RMK A01 T03390102  RH  024%=      5-min Rain = 0
KQU1 251930Z 20014KT 34/11 A2998 RMK A01 T03410114  RH  025%=      5-min Rain = 0
KQU1 251931Z 19012KT 34/12 A2998 RMK A01 T03410118  RH  026%=      5-min Rain = 0
KQU1 251932Z 20011KT 34/12 A2998 RMK A01 T03420119  RH  026%=      5-min Rain = 0
KQU1 251933Z 20010KT 34/12 A2998 RMK A01 T03420124  RH  027%=      5-min Rain = 0
KQU1 251934Z 18013G19KT 34/12 A2998 RMK A01 T03430120  RH  026%=      5-min Rain = 0
KQU1 251935Z 17016KT 34/12 A2998 RMK A01 T03420116  RH  025%=      5-min Rain = 0
KQU1 251936Z 17012KT 34/12 A2998 RMK A01 T03400119  RH  026%=      5-min Rain = 0
KQU1 251937Z 17010KT 34/12 A2998 RMK A01 T03390122  RH  027%=      5-min Rain = 0
KQU1 251938Z 18013KT 34/12 A2998 RMK A01 T03390124  RH  027%=      5-min Rain = 0
KQU1 251939Z 18014KT 34/12 A2998 RMK A01 T03390115  RH  026%=      5-min Rain = 0
KQU1 251940Z 19012KT 34/11 A2998 RMK A01 T03380112  RH  025%=      5-min Rain = 0
KQU1 251941Z 20013KT 34/12 A2998 RMK A01 T03400118  RH  026%=      5-min Rain = 0
KQU1 251942Z 20012KT 34/12 A2998 RMK A01 T03410117  RH  026%=      5-min Rain = 0
KQU1 251943Z 20012KT 34/12 A2998 RMK A01 T03420118  RH  026%=      5-min Rain = 0
KQU1 251944Z 20009KT 34/12 A2998 RMK A01 T03410117  RH  026%=      5-min Rain = 0
KQU1 251945Z 20009KT 34/12 A2998 RMK A01 T03400123  RH  027%=      5-min Rain = 0
KQU1 251946Z 21010KT 34/13 A2998 RMK A01 T03410131  RH  028%=      5-min Rain = 0
KQU1 251947Z 20014KT 34/12 A2998 RMK A01 T03430122  RH  026%=      5-min Rain = 0
KQU1 251948Z 19015KT 34/12 A2997 RMK A01 T03430118  RH  026%=      5-min Rain = 0
KQU1 251949Z 18012KT 34/12 A2998 RMK A01 T03420124  RH  027%=      5-min Rain = 0
KQU1 251950Z 15011KT 34/12 A2998 RMK A01 T03410124  RH  027%=      5-min Rain = 0
KQU1 251951Z 16010KT 34/13 A2997 RMK A01 T03400129  RH  028%=      5-min Rain = 0
KQU1 251952Z 17006KT 34/14 A2997 RMK A01 T03400135  RH  029%=      5-min Rain = 0
KQU1 251953Z 19014KT 34/13 A2997 RMK A01 T03410127  RH  027%=      5-min Rain = 0
KQU1 251954Z 19012KT 34/13 A2997 RMK A01 T03420130  RH  028%=      5-min Rain = 0
KQU1 251955Z 18013KT 34/13 A2997 RMK A01 T03430131  RH  028%=      5-min Rain = 0
KQU1 251956Z 18011KT 34/14 A2997 RMK A01 T03440140  RH  029%=      5-min Rain = 0
KQU1 251957Z 18012KT 34/13 A2997 RMK A01 T03440130  RH  028%=      5-min Rain = 0
KQU1 251958Z 18007KT 34/13 A2997 RMK A01 T03410126  RH  027%=      5-min Rain = 0
KQU1 251959Z 17008KT 34/13 A2997 RMK A01 T03410129  RH  028%=      5-min Rain = 0
KQU1 252000Z 16004KT 34/14 A2997 RMK A01 T03410137  RH  029%=      5-min Rain = 0
KQU1 252001Z 15008KT 34/13 A2997 RMK A01 T03410131  RH  028%=      5-min Rain = 0
KQU1 252002Z 15006KT 34/13 A2997 RMK A01 T03410132  RH  028%=      5-min Rain = 0
KQU1 252003Z 14005KT 34/13 A2997 RMK A01 T03410134  RH  029%=      5-min Rain = 0
KQU1 252004Z 17005KT 34/14 A2997 RMK A01 T03410135  RH  029%=      5-min Rain = 0
KQU1 252005Z 19008KT 34/14 A2997 RMK A01 T03410135  RH  029%=      5-min Rain = 0
KQU1 252006Z 20008KT 34/13 A2997 RMK A01 T03410131  RH  028%=      5-min Rain = 0
KQU1 252007Z 18009KT 34/13 A2997 RMK A01 T03410131  RH  028%=      5-min Rain = 0
KQU1 252008Z 16013KT 34/14 A2997 RMK A01 T03410144  RH  031%=      5-min Rain = 0
KQU1 252009Z 15014KT 34/14 A2997 RMK A01 T03410142  RH  030%=      5-min Rain = 0
KQU1 252010Z 15011KT 34/14 A2997 RMK A01 T03410140  RH  030%=      5-min Rain = 0
KQU1 252011Z 14009KT 34/14 A2997 RMK A01 T03400143  RH  031%=      5-min Rain = 0
KQU1 252012Z 14007KT 34/14 A2996 RMK A01 T03400143  RH  031%=      5-min Rain = 0
KQU1 252013Z 13008KT 34/14 A2996 RMK A01 T03410143  RH  030%=      5-min Rain = 0
KQU1 252014Z 15007KT 34/14 A2996 RMK A01 T03410139  RH  030%=      5-min Rain = 0
KQU1 252015Z 15008KT 34/14 A2996 RMK A01 T03410139  RH  030%=      5-min Rain = 0
KQU1 252016Z 16008KT 34/14 A2996 RMK A01 T03400141  RH  030%=      5-min Rain = 0
KQU1 252017Z 16008KT 34/14 A2996 RMK A01 T03400139  RH  030%=      5-min Rain = 0
KQU1 252018Z 16009G15KT 34/15 A2996 RMK A01 T03410148  RH  031%=      5-min Rain = 0
KQU1 252019Z 13013KT 34/15 A2996 RMK A01 T03430148  RH  031%=      5-min Rain = 0
KQU1 252020Z 13012KT 34/15 A2996 RMK A01 T03420146  RH  031%=      5-min Rain = 0
KQU1 252021Z 14016KT 34/15 A2996 RMK A01 T03420149  RH  031%=      5-min Rain = 0
KQU1 252022Z 13012G18KT 34/14 A2996 RMK A01 T03420141  RH  030%=      5-min Rain = 0
KQU1 252023Z 12009KT 34/14 A2996 RMK A01 T03410142  RH  030%=      5-min Rain = 0
KQU1 252024Z 12012G17KT 34/15 A2996 RMK A01 T03410145  RH  031%=      5-min Rain = 0
KQU1 252025Z 13016KT 34/15 A2996 RMK A01 T03420146  RH  031%=      5-min Rain = 0
KQU1 252026Z 12014KT 34/15 A2996 RMK A01 T03430149  RH  031%=      5-min Rain = 0
KQU1 252027Z 11012KT 34/14 A2996 RMK A01 T03420143  RH  030%=      5-min Rain = 0
KQU1 252028Z 11016KT 34/14 A2996 RMK A01 T03410142  RH  030%=      5-min Rain = 0
KQU1 252029Z 12013KT 34/14 A2996 RMK A01 T03370136  RH  030%=      5-min Rain = 0
KQU1 252030Z 12013KT 33/15 A2996 RMK A01 T03340146  RH  032%=      5-min Rain = 0
KQU1 252031Z 13013KT 34/15 A2996 RMK A01 T03350146  RH  032%=      5-min Rain = 0
KQU1 252032Z 12011KT 34/15 A2995 RMK A01 T03360150  RH  033%=      5-min Rain = 0
KQU1 252033Z 14016KT 34/15 A2995 RMK A01 T03370149  RH  032%=      5-min Rain = 0
KQU1 252034Z 14014KT 34/14 A2996 RMK A01 T03390143  RH  031%=      5-min Rain = 0
KQU1 252035Z 13011KT 34/14 A2995 RMK A01 T03400143  RH  031%=      5-min Rain = 0
KQU1 252036Z 12008KT 34/15 A2995 RMK A01 T03400148  RH  032%=      5-min Rain = 0
KQU1 252037Z 13010KT 34/14 A2995 RMK A01 T03390144  RH  031%=      5-min Rain = 0
KQU1 252038Z 12012KT 34/14 A2995 RMK A01 T03360144  RH  032%=      5-min Rain = 0
KQU1 252039Z 11015G21KT 34/15 A2995 RMK A01 T03350146  RH  032%=      5-min Rain = 0
KQU1 252040Z 12019KT 34/14 A2995 RMK A01 T03350143  RH  031%=      5-min Rain = 0
KQU1 252041Z 14013KT 34/15 A2995 RMK A01 T03370150  RH  032%=      5-min Rain = 0
KQU1 252042Z 13010KT 34/15 A2995 RMK A01 T03390151  RH  032%=      5-min Rain = 0
KQU1 252043Z 13013KT 34/15 A2995 RMK A01 T03410149  RH  032%=      5-min Rain = 0
KQU1 252044Z 15014KT 34/15 A2995 RMK A01 T03410149  RH  032%=      5-min Rain = 0
KQU1 252045Z 13021KT 34/15 A2995 RMK A01 T03410146  RH  031%=      5-min Rain = 0
KQU1 252046Z 16016G22KT 34/14 A2995 RMK A01 T03420140  RH  030%=      5-min Rain = 0
KQU1 252047Z 16018KT 34/14 A2995 RMK A01 T03410136  RH  029%=      5-min Rain = 0
KQU1 252048Z 16014G19KT 34/14 A2995 RMK A01 T03410140  RH  030%=      5-min Rain = 0
KQU1 252049Z 15016G21KT 34/15 A2995 RMK A01 T03420146  RH  031%=      5-min Rain = 0
KQU1 252050Z 15019KT 34/14 A2995 RMK A01 T03410141  RH  030%=      5-min Rain = 0
KQU1 252051Z 15018KT 34/14 A2995 RMK A01 T03380139  RH  030%=      5-min Rain = 0
KQU1 252052Z 15014KT 34/14 A2995 RMK A01 T03360143  RH  031%=      5-min Rain = 0
KQU1 252053Z 14010KT 34/15 A2995 RMK A01 T03360148  RH  032%=      5-min Rain = 0
KQU1 252054Z 15016G21KT 34/15 A2994 RMK A01 T03350151  RH  033%=      5-min Rain = 0
KQU1 252055Z 14016KT 33/16 A2994 RMK A01 T03320157  RH  035%=      5-min Rain = 0
KQU1 252056Z 15017KT 33/16 A2995 RMK A01 T03300161  RH  036%=      5-min Rain = 0
KQU1 252057Z 14015KT 33/16 A2995 RMK A01 T03280156  RH  036%=      5-min Rain = 0
KQU1 252058Z 14016KT 33/16 A2994 RMK A01 T03260157  RH  036%=      5-min Rain = 0
KQU1 252059Z 13015KT 33/16 A2994 RMK A01 T03250159  RH  037%=      5-min Rain = 0
KQU1 252100Z 12019KT 32/16 A2994 RMK A01 T03240161  RH  038%=      5-min Rain = 0
KQU1 252101Z 13018KT 32/16 A2994 RMK A01 T03240164  RH  038%=      5-min Rain = 0
KQU1 252102Z 12015KT 32/17 A2994 RMK A01 T03240168  RH  039%=      5-min Rain = 0
KQU1 252103Z 13014KT 33/17 A2994 RMK A01 T03250171  RH  040%=      5-min Rain = 0
KQU1 252104Z 14015KT 33/17 A2994 RMK A01 T03280174  RH  040%=      5-min Rain = 0
KQU1 252105Z 13015KT 33/17 A2994 RMK A01 T03300170  RH  038%=      5-min Rain = 0
KQU1 252106Z 14018KT 33/17 A2994 RMK A01 T03320169  RH  038%=      5-min Rain = 0
KQU1 252107Z 13016KT 33/17 A2994 RMK A01 T03330172  RH  038%=      5-min Rain = 0
KQU1 252108Z 14019KT 34/17 A2994 RMK A01 T03350171  RH  038%=      5-min Rain = 0
KQU1 252109Z 15021KT 34/17 A2994 RMK A01 T03370165  RH  036%=      5-min Rain = 0
KQU1 252110Z 15020KT 34/16 A2994 RMK A01 T03370160  RH  035%=      5-min Rain = 0
KQU1 252111Z 15020KT 34/16 A2994 RMK A01 T03360162  RH  035%=      5-min Rain = 0
KQU1 252112Z 15018KT 34/16 A2994 RMK A01 T03360163  RH  036%=      5-min Rain = 0
KQU1 252113Z 14018KT 34/17 A2994 RMK A01 T03360167  RH  036%=      5-min Rain = 0
KQU1 252114Z 15017KT 34/17 A2994 RMK A01 T03370167  RH  036%=      5-min Rain = 0
KQU1 252115Z 15018KT 34/16 A2994 RMK A01 T03370161  RH  035%=      5-min Rain = 0
KQU1 252116Z 14018KT 34/17 A2994 RMK A01 T03370166  RH  036%=      5-min Rain = 0
KQU1 252117Z 14018KT 34/17 A2994 RMK A01 T03380165  RH  036%=      5-min Rain = 0
KQU1 252118Z 16015G20KT 34/16 A2994 RMK A01 T03380164  RH  035%=      5-min Rain = 0
KQU1 252119Z 15015G21KT 34/17 A2994 RMK A01 T03390170  RH  037%=      5-min Rain = 0
KQU1 252120Z 16019KT 34/16 A2994 RMK A01 T03390164  RH  035%=      5-min Rain = 0
KQU1 252121Z 14017G22KT 34/16 A2993 RMK A01 T03380163  RH  035%=      5-min Rain = 0
KQU1 252122Z 15018KT 34/17 A2993 RMK A01 T03370171  RH  037%=      5-min Rain = 0
KQU1 252123Z 13021KT 34/17 A2993 RMK A01 T03380172  RH  037%=      5-min Rain = 0
KQU1 252124Z 15018G24KT 34/17 A2993 RMK A01 T03370168  RH  037%=      5-min Rain = 0
KQU1 252125Z 14019KT 34/17 A2993 RMK A01 T03370170  RH  037%=      5-min Rain = 0
KQU1 252126Z 15022KT 34/16 A2993 RMK A01 T03360164  RH  036%=      5-min Rain = 0
KQU1 252127Z 15020G26KT 34/16 A2993 RMK A01 T03350161  RH  035%=      5-min Rain = 0
KQU1 252128Z 15023KT 33/17 A2993 RMK A01 T03340167  RH  037%=      5-min Rain = 0
KQU1 252129Z 14020KT 33/17 A2993 RMK A01 T03340170  RH  038%=      5-min Rain = 0
KQU1 252130Z 14025G31KT 33/17 A2993 RMK A01 T03340168  RH  037%=      5-min Rain = 0
KQU1 252131Z 14021KT 33/17 A2993 RMK A01 T03320168  RH  038%=      5-min Rain = 0
KQU1 252132Z 14022G28KT 33/17 A2993 RMK A01 T03320170  RH  038%=      5-min Rain = 0
KQU1 252133Z 15021KT 33/17 A2993 RMK A01 T03310169  RH  038%=      5-min Rain = 0
KQU1 252134Z 15020KT 33/17 A2993 RMK A01 T03310166  RH  037%=      5-min Rain = 0
KQU1 252135Z 13020KT 33/17 A2993 RMK A01 T03310168  RH  038%=      5-min Rain = 0
KQU1 252136Z 13025KT 33/17 A2993 RMK A01 T03310166  RH  037%=      5-min Rain = 0
KQU1 252137Z 14024G31KT 33/16 A2993 RMK A01 T03310164  RH  037%=      5-min Rain = 0
KQU1 252138Z 14021G28KT 33/17 A2993 RMK A01 T03310167  RH  038%=      5-min Rain = 0
KQU1 252139Z 14023KT 33/17 A2993 RMK A01 T03320165  RH  037%=      5-min Rain = 0
KQU1 252140Z 14019G26KT 33/17 A2993 RMK A01 T03320166  RH  037%=      5-min Rain = 0
KQU1 252141Z 14021G26KT 33/17 A2993 RMK A01 T03320170  RH  038%=      5-min Rain = 0
KQU1 252142Z 14022KT 33/17 A2993 RMK A01 T03320167  RH  037%=      5-min Rain = 0
KQU1 252143Z 14020KT 33/17 A2993 RMK A01 T03320170  RH  038%=      5-min Rain = 0
KQU1 252144Z 15015KT 33/17 A2993 RMK A01 T03320172  RH  039%=      5-min Rain = 0
KQU1 252145Z 15016G22KT 33/17 A2993 RMK A01 T03330170  RH  038%=      5-min Rain = 0
KQU1 252146Z 16021KT 33/16 A2993 RMK A01 T03330160  RH  035%=      5-min Rain = 0
KQU1 252147Z 15016KT 33/17 A2993 RMK A01 T03320165  RH  037%=      5-min Rain = 0
KQU1 252148Z 15020KT 33/16 A2993 RMK A01 T03320160  RH  036%=      5-min Rain = 0
KQU1 252149Z 15018G23KT 33/16 A2993 RMK A01 T03320160  RH  036%=      5-min Rain = 0
KQU1 252150Z 15023KT 33/16 A2993 RMK A01 T03310162  RH  036%=      5-min Rain = 0
KQU1 252151Z 14018KT 33/16 A2993 RMK A01 T03310164  RH  037%=      5-min Rain = 0
KQU1 252152Z 14019G25KT 33/16 A2993 RMK A01 T03320161  RH  036%=      5-min Rain = 0
KQU1 252153Z 14016G21KT 33/17 A2993 RMK A01 T03320165  RH  037%=      5-min Rain = 0
KQU1 252154Z 15019KT 33/16 A2993 RMK A01 T03320161  RH  036%=      5-min Rain = 0
KQU1 252155Z 15022KT 33/16 A2993 RMK A01 T03320158  RH  035%=      5-min Rain = 0
KQU1 252156Z 15019KT 33/16 A2993 RMK A01 T03310160  RH  036%=      5-min Rain = 0
KQU1 252157Z 15021KT 33/16 A2993 RMK A01 T03310155  RH  035%=      5-min Rain = 0
KQU1 252158Z 15018G23KT 33/16 A2993 RMK A01 T03300160  RH  036%=      5-min Rain = 0
KQU1 252159Z 15018G24KT 33/16 A2993 RMK A01 T03300157  RH  036%=      5-min Rain = 0
KQU1 252200Z 15020KT 33/16 A2993 RMK A01 T03300157  RH  035%=      5-min Rain = 0
KQU1 252201Z 15021G26KT 33/16 A2993 RMK A01 T03290157  RH  036%=      5-min Rain = 0
KQU1 252202Z 15021KT 33/16 A2993 RMK A01 T03290157  RH  036%=      5-min Rain = 0
KQU1 252203Z 15018KT 33/16 A2993 RMK A01 T03290155  RH  035%=      5-min Rain = 0
KQU1 252204Z 14021G27KT 33/16 A2993 RMK A01 T03280157  RH  036%=      5-min Rain = 0
KQU1 252205Z 14025KT 33/16 A2993 RMK A01 T03280155  RH  035%=      5-min Rain = 0
KQU1 252206Z 14020KT 33/16 A2993 RMK A01 T03280157  RH  036%=      5-min Rain = 0
KQU1 252207Z 14018KT 33/16 A2993 RMK A01 T03280160  RH  037%=      5-min Rain = 0
KQU1 252208Z 15016KT 33/16 A2993 RMK A01 T03290164  RH  037%=      5-min Rain = 0
KQU1 252209Z 14018KT 33/16 A2993 RMK A01 T03290159  RH  036%=      5-min Rain = 0
KQU1 252210Z 15022KT 33/16 A2993 RMK A01 T03280155  RH  035%=      5-min Rain = 0
KQU1 252211Z 15022KT 33/15 A2993 RMK A01 T03270153  RH  035%=      5-min Rain = 0
KQU1 252212Z 14021KT 33/16 A2993 RMK A01 T03250155  RH  036%=      5-min Rain = 0
KQU1 252213Z 14022KT 33/16 A2993 RMK A01 T03250155  RH  036%=      5-min Rain = 0
KQU1 252214Z 15016KT 32/15 A2993 RMK A01 T03240153  RH  036%=      5-min Rain = 0
KQU1 252215Z 14019KT 32/16 A2993 RMK A01 T03240161  RH  038%=      5-min Rain = 0
KQU1 252216Z 14016G21KT 33/17 A2993 RMK A01 T03250167  RH  039%=      5-min Rain = 0
KQU1 252217Z 14023G31KT 33/16 A2993 RMK A01 T03260161  RH  037%=      5-min Rain = 0
KQU1 252218Z 14020G25KT 33/16 A2993 RMK A01 T03260162  RH  037%=      5-min Rain = 0
KQU1 252219Z 14018G24KT 33/16 A2993 RMK A01 T03260163  RH  038%=      5-min Rain = 0
KQU1 252220Z 15015KT 33/17 A2993 RMK A01 T03270166  RH  038%=      5-min Rain = 0
KQU1 252221Z 13014KT 33/17 A2993 RMK A01 T03280167  RH  038%=      5-min Rain = 0
KQU1 252222Z 13015KT 33/17 A2993 RMK A01 T03290165  RH  037%=      5-min Rain = 0
KQU1 252223Z 14019G24KT 33/17 A2993 RMK A01 T03300165  RH  037%=      5-min Rain = 0
KQU1 252224Z 14020KT 33/16 A2993 RMK A01 T03300162  RH  037%=      5-min Rain = 0
KQU1 252225Z 14017KT 33/16 A2993 RMK A01 T03290164  RH  037%=      5-min Rain = 0
KQU1 252226Z 14020G25KT 33/17 A2993 RMK A01 T03290166  RH  038%=      5-min Rain = 0
KQU1 252227Z 14018KT 33/16 A2993 RMK A01 T03290164  RH  037%=      5-min Rain = 0
KQU1 252228Z 13016KT 33/17 A2993 RMK A01 T03280166  RH  038%=      5-min Rain = 0
KQU1 252229Z 14019G26KT 33/17 A2993 RMK A01 T03280174  RH  040%=      5-min Rain = 0
KQU1 252230Z 13020G25KT 33/17 A2993 RMK A01 T03280172  RH  040%=      5-min Rain = 0
KQU1 252231Z 13020KT 33/17 A2993 RMK A01 T03280168  RH  039%=      5-min Rain = 0
KQU1 252232Z 15018G23KT 33/17 A2993 RMK A01 T03270171  RH  039%=      5-min Rain = 0
KQU1 252233Z 15018KT 33/17 A2993 RMK A01 T03270170  RH  039%=      5-min Rain = 0
KQU1 252234Z 15021KT 33/17 A2993 RMK A01 T03270165  RH  038%=      5-min Rain = 0
KQU1 252235Z 15020KT 33/16 A2993 RMK A01 T03260161  RH  037%=      5-min Rain = 0
KQU1 252236Z 14019G25KT 33/17 A2993 RMK A01 T03250165  RH  038%=      5-min Rain = 0
KQU1 252237Z 14021KT 33/17 A2993 RMK A01 T03250166  RH  039%=      5-min Rain = 0
KQU1 252238Z 14022G29KT 33/17 A2992 RMK A01 T03250166  RH  039%=      5-min Rain = 0
KQU1 252239Z 15019KT 33/17 A2992 RMK A01 T03250166  RH  039%=      5-min Rain = 0
KQU1 252240Z 15019KT 33/16 A2992 RMK A01 T03250163  RH  038%=      5-min Rain = 0
KQU1 252241Z 15020G25KT 33/17 A2992 RMK A01 T03260166  RH  038%=      5-min Rain = 0
KQU1 252242Z 15020G25KT 33/16 A2992 RMK A01 T03260163  RH  038%=      5-min Rain = 0
KQU1 252243Z 14020G25KT 33/17 A2992 RMK A01 T03260168  RH  039%=      5-min Rain = 0
KQU1 252244Z 15019KT 33/17 A2992 RMK A01 T03250168  RH  039%=      5-min Rain = 0
KQU1 252245Z 15018G23KT 33/17 A2992 RMK A01 T03250168  RH  039%=      5-min Rain = 0
KQU1 252246Z 15018KT 33/17 A2992 RMK A01 T03250165  RH  038%=      5-min Rain = 0
KQU1 252247Z 15022KT 33/16 A2992 RMK A01 T03250162  RH  038%=      5-min Rain = 0
KQU1 252248Z 15019KT 33/16 A2992 RMK A01 T03250161  RH  037%=      5-min Rain = 0
KQU1 252249Z 15020KT 32/16 A2992 RMK A01 T03240164  RH  038%=      5-min Rain = 0
KQU1 252250Z 16019KT 32/16 A2992 RMK A01 T03240160  RH  037%=      5-min Rain = 0
KQU1 252251Z 16019KT 32/16 A2992 RMK A01 T03230162  RH  038%=      5-min Rain = 0
KQU1 252252Z 15016G22KT 32/16 A2991 RMK A01 T03230163  RH  038%=      5-min Rain = 0
KQU1 252253Z 16017G25KT 32/17 A2991 RMK A01 T03240167  RH  039%=      5-min Rain = 0
KQU1 252254Z 15020KT 32/16 A2991 RMK A01 T03240163  RH  038%=      5-min Rain = 0
KQU1 252255Z 15019KT 32/16 A2991 RMK A01 T03240162  RH  038%=      5-min Rain = 0
KQU1 252256Z 16018KT 32/17 A2991 RMK A01 T03240166  RH  039%=      5-min Rain = 0
KQU1 252257Z 15022KT 32/16 A2991 RMK A01 T03240164  RH  038%=      5-min Rain = 0
KQU1 252258Z 15020KT 32/16 A2991 RMK A01 T03230163  RH  038%=      5-min Rain = 0
KQU1 252259Z 14022G27KT 32/17 A2991 RMK A01 T03230165  RH  039%=      5-min Rain = 0
KQU1 252300Z 14019G25KT 32/17 A2991 RMK A01 T03230166  RH  039%=      5-min Rain = 0
KQU1 252301Z 14022KT 32/17 A2991 RMK A01 T03230166  RH  039%=      5-min Rain = 0
KQU1 252302Z 14024KT 32/17 A2991 RMK A01 T03220165  RH  039%=      5-min Rain = 0
KQU1 252303Z 13024G29KT 32/17 A2991 RMK A01 T03210167  RH  040%=      5-min Rain = 0
KQU1 252304Z 14023G29KT 32/17 A2991 RMK A01 T03210167  RH  040%=      5-min Rain = 0
KQU1 252305Z 16023KT 32/17 A2991 RMK A01 T03210166  RH  039%=      5-min Rain = 0
KQU1 252306Z 16022KT 32/16 A2991 RMK A01 T03210164  RH  039%=      5-min Rain = 0
KQU1 252307Z 15019G24KT 32/17 A2992 RMK A01 T03210166  RH  039%=      5-min Rain = 0
KQU1 252308Z 15022KT 32/17 A2992 RMK A01 T03210166  RH  039%=      5-min Rain = 0
KQU1 252309Z 15021KT 32/17 A2992 RMK A01 T03210165  RH  039%=      5-min Rain = 0
KQU1 252310Z 15018KT 32/17 A2992 RMK A01 T03210166  RH  039%=      5-min Rain = 0
KQU1 252311Z 14019KT 32/17 A2992 RMK A01 T03210166  RH  039%=      5-min Rain = 0
KQU1 252312Z 14015G21KT 32/17 A2992 RMK A01 T03210170  RH  041%=      5-min Rain = 0
KQU1 252313Z 14021G27KT 32/17 A2992 RMK A01 T03220167  RH  040%=      5-min Rain = 0
KQU1 252314Z 14021G28KT 32/17 A2992 RMK A01 T03220165  RH  039%=      5-min Rain = 0
KQU1 252315Z 14020G25KT 32/16 A2992 RMK A01 T03200164  RH  039%=      5-min Rain = 0
KQU1 252316Z 13023KT 32/16 A2992 RMK A01 T03180162  RH  039%=      5-min Rain = 0
KQU1 252317Z 14023KT 32/16 A2992 RMK A01 T03160162  RH  040%=      5-min Rain = 0
KQU1 252318Z 15021KT 31/16 A2992 RMK A01 T03130161  RH  040%=      5-min Rain = 0
KQU1 252319Z 15021KT 31/16 A2992 RMK A01 T03110163  RH  041%=      5-min Rain = 0
KQU1 252320Z 15024KT 31/16 A2992 RMK A01 T03090162  RH  041%=      5-min Rain = 0
KQU1 252321Z 15019G24KT 31/16 A2991 RMK A01 T03080163  RH  042%=      5-min Rain = 0
KQU1 252322Z 15022KT 31/16 A2991 RMK A01 T03070161  RH  041%=      5-min Rain = 0
KQU1 252323Z 14017G23KT 31/16 A2991 RMK A01 T03060163  RH  042%=      5-min Rain = 0
KQU1 252324Z 15019KT 31/16 A2992 RMK A01 T03050161  RH  042%=      5-min Rain = 0
KQU1 252325Z 14020G26KT 30/16 A2992 RMK A01 T03040162  RH  042%=      5-min Rain = 0
KQU1 252326Z 14019KT 30/16 A2992 RMK A01 T03040162  RH  042%=      5-min Rain = 0
KQU1 252327Z 14019KT 30/16 A2992 RMK A01 T03040163  RH  043%=      5-min Rain = 0
KQU1 252328Z 14021KT 30/16 A2993 RMK A01 T03030161  RH  042%=      5-min Rain = 0
KQU1 252329Z 13020G25KT 30/16 A2993 RMK A01 T03030161  RH  042%=      5-min Rain = 0
KQU1 252330Z 13019KT 30/16 A2993 RMK A01 T03030161  RH  042%=      5-min Rain = 0
KQU1 252331Z 13020KT 30/16 A2993 RMK A01 T03020160  RH  042%=      5-min Rain = 0
KQU1 252332Z 13018KT 30/16 A2993 RMK A01 T03020161  RH  042%=      5-min Rain = 0
KQU1 252333Z 13018KT 30/16 A2993 RMK A01 T03020161  RH  043%=      5-min Rain = 0
KQU1 252334Z 14019G26KT 30/16 A2993 RMK A01 T03010161  RH  043%=      5-min Rain = 0
KQU1 252335Z 14020G26KT 30/16 A2994 RMK A01 T03010161  RH  043%=      5-min Rain = 0
KQU1 252336Z 14019G25KT 30/16 A2994 RMK A01 T03010162  RH  043%=      5-min Rain = 0
KQU1 252337Z 14021G26KT 30/16 A2994 RMK A01 T03010161  RH  043%=      5-min Rain = 0
KQU1 252338Z 13019KT 30/16 A2994 RMK A01 T03010161  RH  043%=      5-min Rain = 0
KQU1 252339Z 14019KT 30/16 A2994 RMK A01 T03000160  RH  043%=      5-min Rain = 0
KQU1 252340Z 13018KT 30/16 A2995 RMK A01 T03000160  RH  043%=      5-min Rain = 0
KQU1 252341Z 13017KT 30/16 A2995 RMK A01 T03000159  RH  043%=      5-min Rain = 0
KQU1 252342Z 13017KT 30/16 A2995 RMK A01 T02990159  RH  043%=      5-min Rain = 0
KQU1 252343Z 13018G23KT 30/16 A2995 RMK A01 T02990158  RH  042%=      5-min Rain = 0
KQU1 252344Z 12017KT 30/16 A2995 RMK A01 T03000158  RH  042%=      5-min Rain = 0
KQU1 252345Z 12016KT 30/16 A2995 RMK A01 T03000158  RH  042%=      5-min Rain = 0
KQU1 252346Z 12014KT 30/16 A2995 RMK A01 T02990161  RH  043%=      5-min Rain = 0
KQU1 252347Z 13017KT 30/16 A2995 RMK A01 T02990163  RH  044%=      5-min Rain = 0
KQU1 252348Z 12019KT 30/16 A2994 RMK A01 T02980163  RH  044%=      5-min Rain = 0
KQU1 252349Z 13015KT 30/16 A2994 RMK A01 T02980163  RH  044%=      5-min Rain = 0
KQU1 252350Z 13018KT 30/16 A2994 RMK A01 T02970163  RH  044%=      5-min Rain = 0
KQU1 252351Z 13019KT 30/16 A2994 RMK A01 T02970163  RH  044%=      5-min Rain = 0
KQU1 252352Z 13017KT 30/16 A2994 RMK A01 T02970163  RH  045%=      5-min Rain = 0
KQU1 252353Z 13018KT 30/16 A2995 RMK A01 T02960163  RH  045%=      5-min Rain = 0
KQU1 252354Z 13017G22KT 30/16 A2995 RMK A01 T02960164  RH  045%=      5-min Rain = 0
KQU1 252355Z 13017KT 30/16 A2995 RMK A01 T02960164  RH  045%=      5-min Rain = 0
KQU1 252356Z 12018KT 30/16 A2995 RMK A01 T02950164  RH  045%=      5-min Rain = 0
KQU1 252357Z 13017KT 30/16 A2995 RMK A01 T02950164  RH  045%=      5-min Rain = 0
KQU1 252358Z 12016KT 30/16 A2995 RMK A01 T02950164  RH  045%=      5-min Rain = 0
KQU1 252359Z 12014KT 29/17 A2995 RMK A01 T02940165  RH  046%=      5-min Rain = 0
KQU1 260000Z 12015KT 29/17 A2996 RMK A01 T02940165  RH  046%=      5-min Rain = 0
KQU1 260001Z 13018G23KT 29/16 A2996 RMK A01 T02940164  RH  046%=      5-min Rain = 0
KQU1 260002Z 12016KT 29/16 A2996 RMK A01 T02940164  RH  046%=      5-min Rain = 0
KQU1 260003Z 12017KT 29/16 A2996 RMK A01 T02940164  RH  046%=      5-min Rain = 0
KQU1 260004Z 12016KT 29/16 A2996 RMK A01 T02940164  RH  045%=      5-min Rain = 0
KQU1 260005Z 11012KT 29/16 A2997 RMK A01 T02940164  RH  045%=      5-min Rain = 0
KQU1 260006Z 11011KT 29/16 A2998 RMK A01 T02940164  RH  046%=      5-min Rain = 0
KQU1 260007Z 08009G14KT 29/16 A2999 RMK A01 T02930163  RH  045%=      5-min Rain = 0
KQU1 260008Z 04010G15KT 29/17 A30 RMK A01 T02940165  RH  046%=      5-min Rain = 0
KQU1 260009Z 01016G29KT 29/16 A3001 RMK A01 T02930158  RH  044%=      5-min Rain = 0
KQU1 260010Z 01016G29KT 28/13 A3001 RMK A01 T02810130  RH  039%=      5-min Rain = 0
KQU1 260011Z 02017G25KT 27/13 A3002 RMK A01 T02670128  RH  042%=      5-min Rain = 0
KQU1 260012Z 01013G21KT 26/13 A3002 RMK A01 T02570129  RH  045%=      5-min Rain = 0
KQU1 260013Z 35011G22KT 25/13 A3002 RMK A01 T02500129  RH  047%=      5-min Rain = 0
KQU1 260014Z 01014G24KT 25/13 A3002 RMK A01 T02450128  RH  048%=      5-min Rain = 0
KQU1 260015Z 36008G17KT 24/13 A3001 RMK A01 T02410130  RH  050%=      5-min Rain = 0
KQU1 260016Z 35016G22KT 24/13 A3001 RMK A01 T02400132  RH  051%=      5-min Rain = 0
KQU1 260017Z 00016G26KT 24/13 A3002 RMK A01 T02390132  RH  051%=      5-min Rain = 0
KQU1 260018Z 35019G30KT 24/13 A3002 RMK A01 T02380131  RH  051%=      5-min Rain = 0
KQU1 260019Z 35022G28KT 24/13 A3002 RMK A01 T02360129  RH  051%=      5-min Rain = 0
KQU1 260020Z 35018G25KT 23/13 A3002 RMK A01 T02330128  RH  052%=      5-min Rain = 0
KQU1 260021Z 35016G27KT 23/13 A3002 RMK A01 T02300129  RH  053%=      5-min Rain = 0
KQU1 260022Z 00019G26KT 23/13 A3003 RMK A01 T02280128  RH  053%=      5-min Rain = 0
KQU1 260023Z 36019G30KT 23/13 A3003 RMK A01 T02260128  RH  054%=      5-min Rain = 0
KQU1 260024Z 36013G19KT 23/13 A3003 RMK A01 T02250128  RH  054%=      5-min Rain = 0
KQU1 260025Z 01008G14KT 22/13 A3003 RMK A01 T02240128  RH  054%=      5-min Rain = 0
KQU1 260026Z 01015G26KT 22/13 A3003 RMK A01 T02230128  RH  055%=      5-min Rain = 0
KQU1 260027Z 00012G23KT 22/13 A3003 RMK A01 T02220128  RH  055%=      5-min Rain = 0
KQU1 260028Z 00013G21KT 22/13 A3003 RMK A01 T02220128  RH  055%=      5-min Rain = 0
KQU1 260029Z 03013G27KT 22/13 A3003 RMK A01 T02220129  RH  056%=      5-min Rain = 0
KQU1 260030Z 02012G18KT 22/13 A3003 RMK A01 T02220131  RH  056%=      5-min Rain = 0
KQU1 260031Z 01013G24KT 22/13 A3003 RMK A01 T02210129  RH  056%=      5-min Rain = 0
KQU1 260032Z 03015G24KT 22/13 A3003 RMK A01 T02200130  RH  057%=      5-min Rain = 0
KQU1 260033Z 02015G20KT 22/13 A3003 RMK A01 T02190129  RH  057%=      5-min Rain = 0
KQU1 260034Z 03019G24KT 22/13 A3003 RMK A01 T02190130  RH  057%=      5-min Rain = 0
KQU1 260035Z 02014G21KT 22/13 A3003 RMK A01 T02190131  RH  057%=      5-min Rain = 0
KQU1 260036Z 35009G14KT 22/13 A3004 RMK A01 T02190131  RH  057%=      5-min Rain = 0
KQU1 260037Z 00010G16KT 22/13 A3004 RMK A01 T02190129  RH  057%=      5-min Rain = 0
KQU1 260038Z 01009G15KT 22/13 A3004 RMK A01 T02180129  RH  057%=      5-min Rain = 0
KQU1 260039Z 02009G16KT 22/13 A3004 RMK A01 T02180130  RH  057%=      5-min Rain = 0
KQU1 260040Z 01011G20KT 22/13 A3005 RMK A01 T02190130  RH  057%=      5-min Rain = 0
KQU1 260041Z 01012G21KT 22/13 A3005 RMK A01 T02190128  RH  056%=      5-min Rain = 0
KQU1 260042Z 00007G12KT 22/13 A3005 RMK A01 T02190129  RH  057%=      5-min Rain = 0
KQU1 260043Z 02005KT 22/13 A3005 RMK A01 T02190131  RH  057%=      5-min Rain = 0
KQU1 260044Z 36012G20KT 22/13 A3005 RMK A01 T02190131  RH  057%=      5-min Rain = 0
KQU1 260045Z 36010G16KT 22/13 A3005 RMK A01 T02200130  RH  057%=      5-min Rain = 0
KQU1 260046Z 00009G18KT 22/13 A3005 RMK A01 T02200130  RH  057%=      5-min Rain = 0
KQU1 260047Z 00008G14KT 22/13 A3005 RMK A01 T02200130  RH  057%=      5-min Rain = 0
KQU1 260048Z 36010G15KT 22/13 A3005 RMK A01 T02200130  RH  057%=      5-min Rain = 0
KQU1 260049Z 01008KT 22/13 A3005 RMK A01 T02200132  RH  057%=      5-min Rain = 0
KQU1 260050Z 02007G13KT 22/13 A3005 RMK A01 T02200132  RH  058%=      5-min Rain = 0
KQU1 260051Z 02015G22KT 22/13 A3005 RMK A01 T02200132  RH  058%=      5-min Rain = 0
KQU1 260052Z 01009G15KT 22/13 A3005 RMK A01 T02190132  RH  058%=      5-min Rain = 0
KQU1 260053Z 01010G17KT 22/13 A3004 RMK A01 T02190133  RH  058%=      5-min Rain = 0
KQU1 260054Z 00010G18KT 22/13 A3004 RMK A01 T02180133  RH  058%=      5-min Rain = 0
KQU1 260055Z 01010KT 22/13 A3004 RMK A01 T02180133  RH  058%=      5-min Rain = 0
KQU1 260056Z 01009G15KT 22/13 A3004 RMK A01 T02180134  RH  059%=      5-min Rain = 0
KQU1 260057Z 36008G13KT 22/13 A3004 RMK A01 T02170134  RH  059%=      5-min Rain = 0
KQU1 260058Z 01010KT 22/14 A3004 RMK A01 T02170135  RH  059%=      5-min Rain = 0
KQU1 260059Z 01011KT 22/14 A3004 RMK A01 T02160136  RH  060%=      5-min Rain = 0
KQU1 260100Z 01009G16KT 22/14 A3004 RMK A01 T02160136  RH  060%=      5-min Rain = 0
KQU1 260101Z 02010KT 22/14 A3003 RMK A01 T02150137  RH  061%=      5-min Rain = 0
KQU1 260102Z 01009KT 22/14 A3003 RMK A01 T02150136  RH  061%=      5-min Rain = 0
KQU1 260103Z 02005G11KT 21/14 A3003 RMK A01 T02140137  RH  061%=      5-min Rain = 0
KQU1 260104Z 03012KT 21/14 A3003 RMK A01 T02140137  RH  062%=      5-min Rain = 0
KQU1 260105Z 03011KT 21/14 A3003 RMK A01 T02130137  RH  062%=      5-min Rain = 0
KQU1 260106Z 01005KT 21/14 A3002 RMK A01 T02120138  RH  063%=      5-min Rain = 0
KQU1 260107Z 04010KT 21/14 A3002 RMK A01 T02120139  RH  063%=      5-min Rain = 0
KQU1 260108Z 03012G17KT 21/14 A3002 RMK A01 T02120138  RH  063%=      5-min Rain = 0
KQU1 260109Z 03012KT 21/14 A3002 RMK A01 T02110140  RH  064%=      5-min Rain = 0
KQU1 260110Z 02013G19KT 21/14 A3002 RMK A01 T02110139  RH  064%=      5-min Rain = 0
KQU1 260111Z 03013KT 21/14 A3003 RMK A01 T02110139  RH  063%=      5-min Rain = 0
KQU1 260112Z 03015G20KT 21/14 A3003 RMK A01 T02110141  RH  064%=      5-min Rain = 0
KQU1 260113Z 03008G13KT 21/14 A3004 RMK A01 T02110142  RH  065%=      5-min Rain = 0
KQU1 260114Z 02007G13KT 21/14 A3004 RMK A01 T02110143  RH  065%=      5-min Rain = 0
KQU1 260115Z 01006KT 21/14 A3004 RMK A01 T02100141  RH  065%=      5-min Rain = 0
KQU1 260116Z 01006KT 21/14 A3004 RMK A01 T02100143  RH  065%=      5-min Rain = 0
KQU1 260117Z 36007G12KT 21/14 A3004 RMK A01 T02100143  RH  065%=      5-min Rain = 0
KQU1 260118Z 01011KT 21/14 A3004 RMK A01 T02100143  RH  065%=      5-min Rain = 0
KQU1 260119Z 36008G13KT 21/14 A3005 RMK A01 T02110144  RH  066%=      5-min Rain = 0
KQU1 260120Z 36005G10KT 21/14 A3005 RMK A01 T02110143  RH  065%=      5-min Rain = 0
KQU1 260121Z 01008KT 21/14 A3005 RMK A01 T02110143  RH  065%=      5-min Rain = 0
KQU1 260122Z 00006KT 21/14 A3005 RMK A01 T02110144  RH  066%=      5-min Rain = 0
KQU1 260123Z 34008KT 21/15 A3005 RMK A01 T02110145  RH  066%=      5-min Rain = 0
KQU1 260124Z 36007KT 21/14 A3005 RMK A01 T02100144  RH  066%=      5-min Rain = 0
KQU1 260125Z 36006G12KT 21/15 A3004 RMK A01 T02100145  RH  066%=      5-min Rain = 0
KQU1 260126Z 35007G13KT 21/15 A3005 RMK A01 T02100145  RH  067%=      5-min Rain = 0
KQU1 260127Z 36007G13KT 21/14 A3005 RMK A01 T02090144  RH  066%=      5-min Rain = 0
KQU1 260128Z 01004G10KT 21/15 A3005 RMK A01 T02090146  RH  067%=      5-min Rain = 0
KQU1 260129Z 02006KT 21/15 A3005 RMK A01 T02100146  RH  067%=      5-min Rain = 0
KQU1 260130Z 02003KT 21/15 A3005 RMK A01 T02100146  RH  067%=      5-min Rain = 0
KQU1 260131Z 00006KT 21/15 A3005 RMK A01 T02100145  RH  067%=      5-min Rain = 0
KQU1 260132Z 36004KT 21/15 A3005 RMK A01 T02100145  RH  067%=      5-min Rain = 0
KQU1 260133Z 02007G14KT 21/15 A3005 RMK A01 T02100145  RH  066%=      5-min Rain = 0
KQU1 260134Z 01004G10KT 21/15 A3005 RMK A01 T02110145  RH  066%=      5-min Rain = 0
KQU1 260135Z 01004G9KT 21/15 A3005 RMK A01 T02110145  RH  066%=      5-min Rain = 0
KQU1 260136Z 01007KT 21/15 A3005 RMK A01 T02120146  RH  066%=      5-min Rain = 0
KQU1 260137Z 01008KT 21/14 A3005 RMK A01 T02120144  RH  065%=      5-min Rain = 0
KQU1 260138Z 02007KT 21/14 A3005 RMK A01 T02120144  RH  065%=      5-min Rain = 0
KQU1 260139Z 02005G11KT 21/14 A3006 RMK A01 T02120144  RH  065%=      5-min Rain = 0
KQU1 260140Z 02006KT 21/15 A3006 RMK A01 T02120145  RH  065%=      5-min Rain = 0
KQU1 260141Z 01007KT 21/14 A3006 RMK A01 T02120144  RH  065%=      5-min Rain = 0
KQU1 260142Z 01006KT 21/14 A3006 RMK A01 T02120144  RH  065%=      5-min Rain = 0
KQU1 260143Z 02005KT 21/15 A3006 RMK A01 T02120145  RH  066%=      5-min Rain = 0
KQU1 260144Z 02006KT 21/15 A3006 RMK A01 T02110146  RH  066%=      5-min Rain = 0
KQU1 260145Z 01008KT 21/15 A3006 RMK A01 T02110145  RH  066%=      5-min Rain = 0
KQU1 260146Z 00005KT 21/15 A3006 RMK A01 T02110146  RH  066%=      5-min Rain = 0
KQU1 260147Z 01006KT 21/15 A3006 RMK A01 T02110146  RH  066%=      5-min Rain = 0
KQU1 260148Z 00007KT 21/15 A3006 RMK A01 T02120145  RH  066%=      5-min Rain = 0
KQU1 260149Z 00007KT 21/15 A3006 RMK A01 T02120145  RH  066%=      5-min Rain = 0
KQU1 260150Z 02006G11KT 21/15 A3006 RMK A01 T02120145  RH  065%=      5-min Rain = 0
KQU1 260151Z 03010KT 21/14 A3006 RMK A01 T02120144  RH  065%=      5-min Rain = 0
KQU1 260152Z 02009KT 21/14 A3006 RMK A01 T02120143  RH  064%=      5-min Rain = 0
KQU1 260153Z 03009G15KT 21/14 A3006 RMK A01 T02130143  RH  064%=      5-min Rain = 0
KQU1 260154Z 03011KT 22/14 A3006 RMK A01 T02150142  RH  063%=      5-min Rain = 0
KQU1 260155Z 03011KT 22/14 A3006 RMK A01 T02160140  RH  062%=      5-min Rain = 0
KQU1 260156Z 04014G19KT 22/14 A3006 RMK A01 T02170139  RH  061%=      5-min Rain = 0
KQU1 260157Z 04014G21KT 22/14 A3006 RMK A01 T02190136  RH  059%=      5-min Rain = 0
KQU1 260158Z 04013KT 22/14 A3006 RMK A01 T02200136  RH  059%=      5-min Rain = 0
KQU1 260159Z 04012KT 22/14 A3006 RMK A01 T02210137  RH  059%=      5-min Rain = 0
KQU1 260200Z 04011KT 22/14 A3005 RMK A01 T02220137  RH  059%=      5-min Rain = 0
KQU1 260201Z 05011KT 22/14 A3005 RMK A01 T02230136  RH  058%=      5-min Rain = 0
KQU1 260202Z 03013KT 22/14 A3005 RMK A01 T02230136  RH  058%=      5-min Rain = 0
KQU1 260203Z 04012KT 22/14 A3005 RMK A01 T02230138  RH  058%=      5-min Rain = 0
KQU1 260204Z 04014KT 22/14 A3006 RMK A01 T02240137  RH  058%=      5-min Rain = 0
KQU1 260205Z 04016KT 23/13 A3006 RMK A01 T02250133  RH  056%=      5-min Rain = 0
KQU1 260206Z 04013KT 23/13 A3006 RMK A01 T02270133  RH  055%=      5-min Rain = 0
KQU1 260207Z 04012G18KT 23/13 A3006 RMK A01 T02280132  RH  055%=      5-min Rain = 0
KQU1 260208Z 06010G16KT 23/13 A3006 RMK A01 T02290131  RH  054%=      5-min Rain = 0
KQU1 260209Z 05011KT 23/13 A3006 RMK A01 T02300129  RH  053%=      5-min Rain = 0
KQU1 260210Z 04013KT 23/13 A3007 RMK A01 T02310127  RH  052%=      5-min Rain = 0
KQU1 260211Z 04008KT 23/13 A3007 RMK A01 T02310128  RH  052%=      5-min Rain = 0
KQU1 260212Z 04007KT 23/13 A3007 RMK A01 T02320128  RH  052%=      5-min Rain = 0
KQU1 260213Z 04009KT 23/13 A3007 RMK A01 T02320128  RH  052%=      5-min Rain = 0
KQU1 260214Z 03007KT 23/13 A3007 RMK A01 T02330130  RH  052%=      5-min Rain = 0
KQU1 260215Z 03007KT 23/13 A3007 RMK A01 T02330129  RH  052%=      5-min Rain = 0
KQU1 260216Z 03006KT 23/13 A3007 RMK A01 T02330129  RH  052%=      5-min Rain = 0
KQU1 260217Z 02007KT 23/13 A3008 RMK A01 T02330129  RH  052%=      5-min Rain = 0
KQU1 260218Z 04007KT 23/12 A3008 RMK A01 T02340123  RH  050%=      5-min Rain = 0
KQU1 260219Z 03007KT 24/12 A3008 RMK A01 T02350123  RH  049%=      5-min Rain = 0
KQU1 260220Z 03007KT 24/12 A3008 RMK A01 T02360123  RH  049%=      5-min Rain = 0
KQU1 260221Z 03007KT 24/13 A3008 RMK A01 T02370125  RH  049%=      5-min Rain = 0
KQU1 260222Z 03008KT 24/12 A3008 RMK A01 T02370124  RH  049%=      5-min Rain = 0
KQU1 260223Z 02007KT 24/13 A3009 RMK A01 T02380126  RH  049%=      5-min Rain = 0
KQU1 260224Z 03007KT 24/11 A3008 RMK A01 T02390114  RH  045%=      5-min Rain = 0
KQU1 260225Z 05006KT 24/11 A3008 RMK A01 T02420110  RH  043%=      5-min Rain = 0
KQU1 260226Z 01006KT 25/12 A3009 RMK A01 T02450116  RH  044%=      5-min Rain = 0
KQU1 260227Z 04010KT 25/11 A3009 RMK A01 T02470109  RH  042%=      5-min Rain = 0
KQU1 260228Z 03006KT 25/11 A3009 RMK A01 T02490107  RH  041%=      5-min Rain = 0
KQU1 260229Z 03005KT 25/11 A3009 RMK A01 T02500109  RH  041%=      5-min Rain = 0
KQU1 260230Z 01004KT 25/11 A3009 RMK A01 T02510113  RH  042%=      5-min Rain = 0
KQU1 260231Z 01003KT 25/11 A3009 RMK A01 T02510113  RH  042%=      5-min Rain = 0
KQU1 260232Z 00008G13KT 25/11 A3009 RMK A01 T02520111  RH  041%=      5-min Rain = 0
KQU1 260233Z 03007KT 25/11 A3009 RMK A01 T02520108  RH  040%=      5-min Rain = 0
KQU1 260234Z 03005KT 25/11 A3009 RMK A01 T02530109  RH  040%=      5-min Rain = 0
KQU1 260235Z 04006KT 25/11 A3009 RMK A01 T02530109  RH  040%=      5-min Rain = 0
KQU1 260236Z 03006KT 25/11 A3009 RMK A01 T02530107  RH  040%=      5-min Rain = 0
KQU1 260237Z 03003KT 25/11 A301 RMK A01 T02530110  RH  041%=      5-min Rain = 0
KQU1 260238Z 02002KT 25/11 A301 RMK A01 T02530109  RH  040%=      5-min Rain = 0
KQU1 260239Z 02001KT 25/11 A301 RMK A01 T02530110  RH  041%=      5-min Rain = 0
KQU1 260240Z 03003KT 25/11 A301 RMK A01 T02530110  RH  040%=      5-min Rain = 0
KQU1 260241Z 01003KT 25/11 A301 RMK A01 T02540110  RH  041%=      5-min Rain = 0
KQU1 260242Z 03002KT 25/11 A301 RMK A01 T02540112  RH  041%=      5-min Rain = 0
KQU1 260243Z 35002KT 25/11 A301 RMK A01 T02540112  RH  041%=      5-min Rain = 0
KQU1 260244Z 35002KT 25/11 A301 RMK A01 T02540111  RH  041%=      5-min Rain = 0
KQU1 260245Z 04003KT 25/11 A301 RMK A01 T02540109  RH  040%=      5-min Rain = 0
KQU1 260246Z 02004KT 25/11 A301 RMK A01 T02540111  RH  041%=      5-min Rain = 0
KQU1 260247Z 01001KT 25/11 A301 RMK A01 T02540111  RH  041%=      5-min Rain = 0
KQU1 260248Z 35003KT 25/11 A301 RMK A01 T02540111  RH  040%=      5-min Rain = 0
KQU1 260249Z 34002KT 26/11 A301 RMK A01 T02550110  RH  040%=      5-min Rain = 0
KQU1 260250Z 00002KT 25/11 A301 RMK A01 T02540110  RH  040%=      5-min Rain = 0
KQU1 260251Z 01003KT 25/11 A3011 RMK A01 T02540107  RH  040%=      5-min Rain = 0
KQU1 260252Z 03003KT 25/11 A3011 RMK A01 T02540108  RH  040%=      5-min Rain = 0
KQU1 260253Z 01002KT 25/11 A3011 RMK A01 T02540110  RH  040%=      5-min Rain = 0
KQU1 260254Z 33002KT 26/11 A3011 RMK A01 T02550111  RH  040%=      5-min Rain = 0
KQU1 260255Z 34003KT 25/11 A3011 RMK A01 T02540107  RH  040%=      5-min Rain = 0
KQU1 260256Z 35002KT 26/11 A3011 RMK A01 T02550107  RH  039%=      5-min Rain = 0
KQU1 260257Z 35001KT 26/11 A3011 RMK A01 T02550108  RH  040%=      5-min Rain = 0
KQU1 260258Z 33002KT 26/11 A3011 RMK A01 T02550107  RH  039%=      5-min Rain = 0
KQU1 260259Z 28004KT 25/11 A3011 RMK A01 T02540109  RH  040%=      5-min Rain = 0
KQU1 260300Z 30004KT 25/11 A3011 RMK A01 T02530111  RH  041%=      5-min Rain = 0
KQU1 260301Z 28004KT 25/11 A3011 RMK A01 T02520110  RH  041%=      5-min Rain = 0
KQU1 260302Z 29004KT 25/11 A3011 RMK A01 T02520111  RH  041%=      5-min Rain = 0
KQU1 260303Z 33002KT 25/10 A3011 RMK A01 T02520098  RH  038%=      5-min Rain = 0
KQU1 260304Z 17001KT 25/10 A3011 RMK A01 T02540104  RH  039%=      5-min Rain = 0
KQU1 260305Z 19002KT 25/11 A3011 RMK A01 T02540107  RH  040%=      5-min Rain = 0
KQU1 260306Z 20003KT 25/11 A3011 RMK A01 T02540110  RH  040%=      5-min Rain = 0
KQU1 260307Z 19005KT 25/10 A3011 RMK A01 T02530103  RH  039%=      5-min Rain = 0
KQU1 260308Z 17004KT 25/10 A3011 RMK A01 T02540095  RH  036%=      5-min Rain = 0
KQU1 260309Z 15004KT 26/09 A3011 RMK A01 T02570088  RH  034%=      5-min Rain = 0
KQU1 260310Z 14004KT 26/09 A3011 RMK A01 T02590092  RH  035%=      5-min Rain = 0
KQU1 260311Z 14005KT 26/10 A301 RMK A01 T02590098  RH  036%=      5-min Rain = 0
KQU1 260312Z 12007KT 26/10 A301 RMK A01 T02590096  RH  036%=      5-min Rain = 0
KQU1 260313Z 11008KT 26/09 A3009 RMK A01 T02580093  RH  035%=      5-min Rain = 0
KQU1 260314Z 10010KT 26/10 A3009 RMK A01 T02580102  RH  037%=      5-min Rain = 0
KQU1 260315Z 09011KT 26/11 A3008 RMK A01 T02560107  RH  039%=      5-min Rain = 0
KQU1 260316Z 08013KT 25/12 A3007 RMK A01 T02540115  RH  042%=      5-min Rain = 0
KQU1 260317Z 09014KT 25/12 A3006 RMK A01 T02510121  RH  044%=      5-min Rain = 0
KQU1 260318Z 09016KT 25/12 A3005 RMK A01 T02480118  RH  044%=      5-min Rain = 0
KQU1 260319Z 09017KT 25/12 A3005 RMK A01 T02450121  RH  046%=      5-min Rain = 0
KQU1 260320Z 09019KT 24/12 A3004 RMK A01 T02430122  RH  047%=      5-min Rain = 0
KQU1 260321Z 09019KT 24/12 A3004 RMK A01 T02410119  RH  047%=      5-min Rain = 0
KQU1 260322Z 10019KT 24/12 A3003 RMK A01 T02390119  RH  047%=      5-min Rain = 0
KQU1 260323Z 11019KT 24/12 A3003 RMK A01 T02390116  RH  046%=      5-min Rain = 0
KQU1 260324Z 11024G29KT 24/11 A3002 RMK A01 T02390112  RH  045%=      5-min Rain = 0
KQU1 260325Z 12021KT 24/11 A3002 RMK A01 T02400112  RH  045%=      5-min Rain = 0
KQU1 260326Z 12019KT 24/12 A3002 RMK A01 T02400117  RH  046%=      5-min Rain = 0
KQU1 260327Z 12020KT 24/12 A3002 RMK A01 T02380117  RH  046%=      5-min Rain = 0
KQU1 260328Z 12019KT 24/12 A3002 RMK A01 T02380115  RH  046%=      5-min Rain = 0
KQU1 260329Z 13016KT 24/12 A3003 RMK A01 T02390117  RH  046%=      5-min Rain = 0
KQU1 260330Z 14018KT 24/11 A3003 RMK A01 T02400114  RH  045%=      5-min Rain = 0
KQU1 260331Z 15020KT 24/11 A3003 RMK A01 T02410113  RH  045%=      5-min Rain = 0
KQU1 260332Z 15021G26KT 24/11 A3003 RMK A01 T02410114  RH  045%=      5-min Rain = 0
KQU1 260333Z 15021G26KT 24/12 A3003 RMK A01 T02410118  RH  046%=      5-min Rain = 0
KQU1 260334Z 15023KT 24/12 A3004 RMK A01 T02400118  RH  046%=      5-min Rain = 0
KQU1 260335Z 15022KT 24/12 A3004 RMK A01 T02400117  RH  046%=      5-min Rain = 0
KQU1 260336Z 15025KT 24/11 A3004 RMK A01 T02400113  RH  045%=      5-min Rain = 0
KQU1 260337Z 15023KT 24/11 A3004 RMK A01 T02410112  RH  044%=      5-min Rain = 0
KQU1 260338Z 16023KT 24/11 A3005 RMK A01 T02410113  RH  045%=      5-min Rain = 0
KQU1 260339Z 15023KT 24/11 A3005 RMK A01 T02410111  RH  044%=      5-min Rain = 0
KQU1 260340Z 15021KT 24/11 A3005 RMK A01 T02410110  RH  044%=      5-min Rain = 0
KQU1 260341Z 14020KT 24/10 A3005 RMK A01 T02410103  RH  042%=      5-min Rain = 0
KQU1 260342Z 15020G25KT 24/10 A3005 RMK A01 T02430100  RH  040%=      5-min Rain = 0
KQU1 260343Z 15018G23KT 24/10 A3005 RMK A01 T02440103  RH  041%=      5-min Rain = 0
KQU1 260344Z 13021KT 24/10 A3005 RMK A01 T02440100  RH  040%=      5-min Rain = 0
KQU1 260345Z 14016KT 25/11 A3006 RMK A01 T02450105  RH  041%=      5-min Rain = 0
KQU1 260346Z 14018KT 24/11 A3006 RMK A01 T02440106  RH  042%=      5-min Rain = 0
KQU1 260347Z 13016G23KT 24/11 A3006 RMK A01 T02430105  RH  042%=      5-min Rain = 0
KQU1 260348Z 14014KT 24/11 A3006 RMK A01 T02430105  RH  042%=      5-min Rain = 0
KQU1 260349Z 13011KT 24/10 A3006 RMK A01 T02420104  RH  042%=      5-min Rain = 0
KQU1 260350Z 13011KT 24/10 A3006 RMK A01 T02420103  RH  041%=      5-min Rain = 0
KQU1 260351Z 13009KT 24/10 A3006 RMK A01 T02430099  RH  040%=      5-min Rain = 0
KQU1 260352Z 13010KT 24/10 A3006 RMK A01 T02430098  RH  040%=      5-min Rain = 0
KQU1 260353Z 13011KT 24/10 A3006 RMK A01 T02430099  RH  040%=      5-min Rain = 0
KQU1 260354Z 12013KT 24/10 A3006 RMK A01 T02430100  RH  040%=      5-min Rain = 0
KQU1 260355Z 12011KT 24/10 A3006 RMK A01 T02430099  RH  040%=      5-min Rain = 0
KQU1 260356Z 12011KT 24/10 A3006 RMK A01 T02430099  RH  040%=      5-min Rain = 0
KQU1 260357Z 12011KT 24/10 A3006 RMK A01 T02430101  RH  040%=      5-min Rain = 0
KQU1 260358Z 11009KT 24/10 A3007 RMK A01 T02430102  RH  041%=      5-min Rain = 0
KQU1 260359Z 11009KT 24/10 A3007 RMK A01 T02430103  RH  041%=      5-min Rain = 0
KQU1 260400Z 11012KT 24/10 A3007 RMK A01 T02420104  RH  042%=      5-min Rain = 0
KQU1 260401Z 12011KT 24/11 A3007 RMK A01 T02410106  RH  042%=      5-min Rain = 0
KQU1 260402Z 12010KT 24/11 A3007 RMK A01 T02400109  RH  044%=      5-min Rain = 0
KQU1 260403Z 12010KT 24/11 A3007 RMK A01 T02380111  RH  045%=      5-min Rain = 0
KQU1 260404Z 11012KT 24/11 A3007 RMK A01 T02370112  RH  045%=      5-min Rain = 0
KQU1 260405Z 11011KT 24/11 A3007 RMK A01 T02360110  RH  045%=      5-min Rain = 0
KQU1 260406Z 11014KT 24/11 A3007 RMK A01 T02360109  RH  045%=      5-min Rain = 0
KQU1 260407Z 12011KT 24/11 A3007 RMK A01 T02360109  RH  045%=      5-min Rain = 0
KQU1 260408Z 12009KT 24/11 A3007 RMK A01 T02360110  RH  045%=      5-min Rain = 0
KQU1 260409Z 12010KT 24/11 A3007 RMK A01 T02350111  RH  046%=      5-min Rain = 0
KQU1 260410Z 11010KT 24/11 A3007 RMK A01 T02350112  RH  046%=      5-min Rain = 0
KQU1 260411Z 12010KT 23/11 A3007 RMK A01 T02340113  RH  046%=      5-min Rain = 0
KQU1 260412Z 11010KT 23/11 A3007 RMK A01 T02340111  RH  046%=      5-min Rain = 0
KQU1 260413Z 11009KT 23/11 A3007 RMK A01 T02340111  RH  046%=      5-min Rain = 0
KQU1 260414Z 11009KT 23/11 A3007 RMK A01 T02340110  RH  046%=      5-min Rain = 0
KQU1 260415Z 11007KT 23/11 A3008 RMK A01 T02340111  RH  046%=      5-min Rain = 0
KQU1 260416Z 11008KT 23/11 A3008 RMK A01 T02340110  RH  046%=      5-min Rain = 0
KQU1 260417Z 10007KT 23/11 A3008 RMK A01 T02340111  RH  046%=      5-min Rain = 0
KQU1 260418Z 10007KT 23/11 A3008 RMK A01 T02340112  RH  046%=      5-min Rain = 0
KQU1 260419Z 10007KT 23/11 A3008 RMK A01 T02340112  RH  046%=      5-min Rain = 0
KQU1 260420Z 10007KT 23/11 A3008 RMK A01 T02340112  RH  046%=      5-min Rain = 0
KQU1 260421Z 09006KT 23/11 A3008 RMK A01 T02340111  RH  046%=      5-min Rain = 0
KQU1 260422Z 10006KT 23/11 A3008 RMK A01 T02340110  RH  046%=      5-min Rain = 0
KQU1 260423Z 10006KT 23/11 A3008 RMK A01 T02340109  RH  045%=      5-min Rain = 0
KQU1 260424Z 09005KT 23/11 A3008 RMK A01 T02340108  RH  045%=      5-min Rain = 0
KQU1 260425Z 09004KT 23/11 A3008 RMK A01 T02340108  RH  045%=      5-min Rain = 0
KQU1 260426Z 09004KT 24/11 A3008 RMK A01 T02350107  RH  045%=      5-min Rain = 0
KQU1 260427Z 09004KT 24/11 A3008 RMK A01 T02350106  RH  044%=      5-min Rain = 0
KQU1 260428Z 09005KT 24/11 A3008 RMK A01 T02350106  RH  044%=      5-min Rain = 0
KQU1 260429Z 08003KT 24/11 A3008 RMK A01 T02350107  RH  044%=      5-min Rain = 0
KQU1 260430Z 06003KT 24/11 A3008 RMK A01 T02350107  RH  044%=      5-min Rain = 0
KQU1 260431Z 05004KT 24/11 A3008 RMK A01 T02350106  RH  044%=      5-min Rain = 0
KQU1 260432Z 05003KT 24/11 A3008 RMK A01 T02350108  RH  045%=      5-min Rain = 0
KQU1 260433Z 05004KT 24/11 A3008 RMK A01 T02350109  RH  045%=      5-min Rain = 0
KQU1 260434Z 05004KT 24/11 A3009 RMK A01 T02350109  RH  045%=      5-min Rain = 0
KQU1 260435Z 05003KT 24/11 A3008 RMK A01 T02350109  RH  045%=      5-min Rain = 0
KQU1 260436Z 05003KT 24/11 A3008 RMK A01 T02360109  RH  045%=      5-min Rain = 0
KQU1 260437Z 08003KT 24/11 A3008 RMK A01 T02360109  RH  045%=      5-min Rain = 0
KQU1 260438Z 11002KT 24/11 A3008 RMK A01 T02360110  RH  045%=      5-min Rain = 0
KQU1 260439Z 09003KT 24/11 A3008 RMK A01 T02360109  RH  045%=      5-min Rain = 0
KQU1 260440Z 11005KT 24/11 A3008 RMK A01 T02350106  RH  044%=      5-min Rain = 0
KQU1 260441Z 11007KT 24/10 A3008 RMK A01 T02350102  RH  043%=      5-min Rain = 0
KQU1 260442Z 11007KT 24/10 A3008 RMK A01 T02360101  RH  042%=      5-min Rain = 0
KQU1 260443Z 11007KT 24/10 A3007 RMK A01 T02370103  RH  043%=      5-min Rain = 0
KQU1 260444Z 11008KT 24/10 A3007 RMK A01 T02370102  RH  043%=      5-min Rain = 0
KQU1 260445Z 12008KT 24/10 A3007 RMK A01 T02370103  RH  043%=      5-min Rain = 0
KQU1 260446Z 12009KT 24/10 A3007 RMK A01 T02360103  RH  043%=      5-min Rain = 0
KQU1 260447Z 11009KT 24/10 A3007 RMK A01 T02360101  RH  043%=      5-min Rain = 0
KQU1 260448Z 11010KT 24/10 A3007 RMK A01 T02360097  RH  041%=      5-min Rain = 0
KQU1 260449Z 12010KT 24/09 A3007 RMK A01 T02370093  RH  040%=      5-min Rain = 0
KQU1 260450Z 11011KT 24/09 A3007 RMK A01 T02390091  RH  039%=      5-min Rain = 0
KQU1 260451Z 12009KT 24/09 A3007 RMK A01 T02400091  RH  039%=      5-min Rain = 0
KQU1 260452Z 12009KT 24/09 A3007 RMK A01 T02410091  RH  039%=      5-min Rain = 0
KQU1 260453Z 13009KT 24/09 A3007 RMK A01 T02410090  RH  038%=      5-min Rain = 0
KQU1 260454Z 12009KT 24/09 A3007 RMK A01 T02420091  RH  038%=      5-min Rain = 0
KQU1 260455Z 12007KT 24/09 A3007 RMK A01 T02420092  RH  038%=      5-min Rain = 0
KQU1 260456Z 12007KT 24/09 A3007 RMK A01 T02420092  RH  039%=      5-min Rain = 0
KQU1 260457Z 13007KT 24/09 A3007 RMK A01 T02410094  RH  039%=      5-min Rain = 0
KQU1 260458Z 14007KT 24/09 A3007 RMK A01 T02410094  RH  039%=      5-min Rain = 0
KQU1 260459Z 14007KT 24/10 A3007 RMK A01 T02400096  RH  040%=      5-min Rain = 0

Page generated in 0.0696 seconds.